<?xml version="1.0" encoding="UTF-8" standalone="no" ?>
<gpx xmlns="http://www.topografix.com/GPX/1/1" xmlns:xsi="http://www.w3.org/2001/XMLSchema-instance" xsi:schemaLocation="http://www.topografix.com/GPX/1/1 http://www.topografix.com/GPX/1/1/gpx.xsd" version="1.1" creator="VisuGPX - https://www.visugpx.com">
  <metadata>
    <name>Colle Begino</name>
    <desc><![CDATA[Cesana (Bousson) - Colle Begino]]></desc>
  </metadata>
  <wpt lat="44.89668" lon="6.8118">
    <ele>2288</ele>
    <name><![CDATA[Colle Begino]]></name>
    <type><![CDATA[user]]></type>
  </wpt>
  <trk>
    <name><![CDATA[Colle_Begino]]></name>
    <desc><![CDATA[Colle Begino]]></desc>
    <trkseg>
      <trkpt lat="44.93176" lon="6.82035">
        <ele>1434.91</ele>
        <time>2012-01-12T08:53:47Z</time>
      </trkpt>
      <trkpt lat="44.93177" lon="6.82036">
        <ele>1434.91</ele>
        <time>2012-01-12T08:54:05Z</time>
      </trkpt>
      <trkpt lat="44.93177" lon="6.82036">
        <ele>1434.91</ele>
        <time>2012-01-12T08:54:26Z</time>
      </trkpt>
      <trkpt lat="44.93177" lon="6.82036">
        <ele>1434.91</ele>
        <time>2012-01-12T08:54:40Z</time>
      </trkpt>
      <trkpt lat="44.93161" lon="6.8203">
        <ele>1434.91</ele>
        <time>2012-01-12T08:54:55Z</time>
      </trkpt>
      <trkpt lat="44.93158" lon="6.82032">
        <ele>1434.91</ele>
        <time>2012-01-12T08:54:59Z</time>
      </trkpt>
      <trkpt lat="44.93152" lon="6.82028">
        <ele>1435.87</ele>
        <time>2012-01-12T08:55:06Z</time>
      </trkpt>
      <trkpt lat="44.93138" lon="6.82024">
        <ele>1436.83</ele>
        <time>2012-01-12T08:55:20Z</time>
      </trkpt>
      <trkpt lat="44.93125" lon="6.8202">
        <ele>1438.75</ele>
        <time>2012-01-12T08:55:35Z</time>
      </trkpt>
      <trkpt lat="44.93113" lon="6.82013">
        <ele>1440.19</ele>
        <time>2012-01-12T08:55:50Z</time>
      </trkpt>
      <trkpt lat="44.931" lon="6.82008">
        <ele>1442.11</ele>
        <time>2012-01-12T08:56:06Z</time>
      </trkpt>
      <trkpt lat="44.93088" lon="6.82005">
        <ele>1443.08</ele>
        <time>2012-01-12T08:56:19Z</time>
      </trkpt>
      <trkpt lat="44.93075" lon="6.82005">
        <ele>1445</ele>
        <time>2012-01-12T08:56:34Z</time>
      </trkpt>
      <trkpt lat="44.9307" lon="6.82003">
        <ele>1445.48</ele>
        <time>2012-01-12T08:56:39Z</time>
      </trkpt>
      <trkpt lat="44.93058" lon="6.81999">
        <ele>1446.44</ele>
        <time>2012-01-12T08:56:51Z</time>
      </trkpt>
      <trkpt lat="44.93042" lon="6.81996">
        <ele>1448.36</ele>
        <time>2012-01-12T08:57:08Z</time>
      </trkpt>
      <trkpt lat="44.93029" lon="6.81989">
        <ele>1450.29</ele>
        <time>2012-01-12T08:57:23Z</time>
      </trkpt>
      <trkpt lat="44.93023" lon="6.8198">
        <ele>1451.25</ele>
        <time>2012-01-12T08:57:37Z</time>
      </trkpt>
      <trkpt lat="44.93018" lon="6.81973">
        <ele>1451.73</ele>
        <time>2012-01-12T08:57:43Z</time>
      </trkpt>
      <trkpt lat="44.93017" lon="6.81954">
        <ele>1453.17</ele>
        <time>2012-01-12T08:57:56Z</time>
      </trkpt>
      <trkpt lat="44.93023" lon="6.81931">
        <ele>1455.09</ele>
        <time>2012-01-12T08:58:11Z</time>
      </trkpt>
      <trkpt lat="44.93028" lon="6.81917">
        <ele>1457.02</ele>
        <time>2012-01-12T08:58:29Z</time>
      </trkpt>
      <trkpt lat="44.93035" lon="6.81907">
        <ele>1457.5</ele>
        <time>2012-01-12T08:58:37Z</time>
      </trkpt>
      <trkpt lat="44.93047" lon="6.8189">
        <ele>1458.94</ele>
        <time>2012-01-12T08:58:53Z</time>
      </trkpt>
      <trkpt lat="44.9305" lon="6.81886">
        <ele>1459.9</ele>
        <time>2012-01-12T08:58:58Z</time>
      </trkpt>
      <trkpt lat="44.93061" lon="6.8187">
        <ele>1461.34</ele>
        <time>2012-01-12T08:59:15Z</time>
      </trkpt>
      <trkpt lat="44.9307" lon="6.81851">
        <ele>1463.26</ele>
        <time>2012-01-12T08:59:32Z</time>
      </trkpt>
      <trkpt lat="44.93079" lon="6.81831">
        <ele>1464.71</ele>
        <time>2012-01-12T08:59:50Z</time>
      </trkpt>
      <trkpt lat="44.9309" lon="6.81816">
        <ele>1467.11</ele>
        <time>2012-01-12T09:00:06Z</time>
      </trkpt>
      <trkpt lat="44.931" lon="6.81804">
        <ele>1468.55</ele>
        <time>2012-01-12T09:00:23Z</time>
      </trkpt>
      <trkpt lat="44.93111" lon="6.81795">
        <ele>1470.47</ele>
        <time>2012-01-12T09:00:37Z</time>
      </trkpt>
      <trkpt lat="44.93121" lon="6.81783">
        <ele>1471.92</ele>
        <time>2012-01-12T09:00:51Z</time>
      </trkpt>
      <trkpt lat="44.9313" lon="6.81772">
        <ele>1473.36</ele>
        <time>2012-01-12T09:01:04Z</time>
      </trkpt>
      <trkpt lat="44.93139" lon="6.8176">
        <ele>1475.28</ele>
        <time>2012-01-12T09:01:18Z</time>
      </trkpt>
      <trkpt lat="44.93145" lon="6.81751">
        <ele>1476.24</ele>
        <time>2012-01-12T09:01:27Z</time>
      </trkpt>
      <trkpt lat="44.93155" lon="6.81737">
        <ele>1478.16</ele>
        <time>2012-01-12T09:01:42Z</time>
      </trkpt>
      <trkpt lat="44.93167" lon="6.81724">
        <ele>1479.61</ele>
        <time>2012-01-12T09:01:58Z</time>
      </trkpt>
      <trkpt lat="44.93174" lon="6.81715">
        <ele>1481.05</ele>
        <time>2012-01-12T09:02:12Z</time>
      </trkpt>
      <trkpt lat="44.93181" lon="6.81701">
        <ele>1482.01</ele>
        <time>2012-01-12T09:02:25Z</time>
      </trkpt>
      <trkpt lat="44.93187" lon="6.81685">
        <ele>1484.41</ele>
        <time>2012-01-12T09:02:40Z</time>
      </trkpt>
      <trkpt lat="44.93188" lon="6.81679">
        <ele>1484.89</ele>
        <time>2012-01-12T09:02:46Z</time>
      </trkpt>
      <trkpt lat="44.9319" lon="6.81659">
        <ele>1486.34</ele>
        <time>2012-01-12T09:03:03Z</time>
      </trkpt>
      <trkpt lat="44.93193" lon="6.81644">
        <ele>1488.26</ele>
        <time>2012-01-12T09:03:16Z</time>
      </trkpt>
      <trkpt lat="44.93192" lon="6.81627">
        <ele>1489.7</ele>
        <time>2012-01-12T09:03:32Z</time>
      </trkpt>
      <trkpt lat="44.93189" lon="6.81626">
        <ele>1490.66</ele>
        <time>2012-01-12T09:03:50Z</time>
      </trkpt>
      <trkpt lat="44.93193" lon="6.81609">
        <ele>1491.14</ele>
        <time>2012-01-12T09:04:02Z</time>
      </trkpt>
      <trkpt lat="44.9319" lon="6.81587">
        <ele>1493.06</ele>
        <time>2012-01-12T09:04:18Z</time>
      </trkpt>
      <trkpt lat="44.93191" lon="6.81565">
        <ele>1494.51</ele>
        <time>2012-01-12T09:04:33Z</time>
      </trkpt>
      <trkpt lat="44.93193" lon="6.81547">
        <ele>1495.95</ele>
        <time>2012-01-12T09:04:48Z</time>
      </trkpt>
      <trkpt lat="44.93194" lon="6.81534">
        <ele>1496.91</ele>
        <time>2012-01-12T09:05:05Z</time>
      </trkpt>
      <trkpt lat="44.93196" lon="6.81532">
        <ele>1497.39</ele>
        <time>2012-01-12T09:05:22Z</time>
      </trkpt>
      <trkpt lat="44.93196" lon="6.81532">
        <ele>1497.39</ele>
        <time>2012-01-12T09:05:41Z</time>
      </trkpt>
      <trkpt lat="44.93196" lon="6.81529">
        <ele>1497.39</ele>
        <time>2012-01-12T09:05:47Z</time>
      </trkpt>
      <trkpt lat="44.93197" lon="6.81529">
        <ele>1497.39</ele>
        <time>2012-01-12T09:06:12Z</time>
      </trkpt>
      <trkpt lat="44.93197" lon="6.81529">
        <ele>1496.43</ele>
        <time>2012-01-12T09:06:41Z</time>
      </trkpt>
      <trkpt lat="44.93197" lon="6.81529">
        <ele>1496.43</ele>
        <time>2012-01-12T09:07:16Z</time>
      </trkpt>
      <trkpt lat="44.93197" lon="6.81529">
        <ele>1496.43</ele>
        <time>2012-01-12T09:07:40Z</time>
      </trkpt>
      <trkpt lat="44.93197" lon="6.81528">
        <ele>1496.43</ele>
        <time>2012-01-12T09:08:06Z</time>
      </trkpt>
      <trkpt lat="44.93197" lon="6.81528">
        <ele>1496.43</ele>
        <time>2012-01-12T09:08:28Z</time>
      </trkpt>
      <trkpt lat="44.93196" lon="6.81529">
        <ele>1496.43</ele>
        <time>2012-01-12T09:08:39Z</time>
      </trkpt>
      <trkpt lat="44.93196" lon="6.81529">
        <ele>1497.87</ele>
        <time>2012-01-12T09:08:55Z</time>
      </trkpt>
      <trkpt lat="44.93196" lon="6.81529">
        <ele>1497.87</ele>
        <time>2012-01-12T09:09:19Z</time>
      </trkpt>
      <trkpt lat="44.93196" lon="6.81529">
        <ele>1497.87</ele>
        <time>2012-01-12T09:09:42Z</time>
      </trkpt>
      <trkpt lat="44.93196" lon="6.81523">
        <ele>1497.87</ele>
        <time>2012-01-12T09:09:59Z</time>
      </trkpt>
      <trkpt lat="44.93198" lon="6.81506">
        <ele>1498.83</ele>
        <time>2012-01-12T09:10:14Z</time>
      </trkpt>
      <trkpt lat="44.93204" lon="6.81488">
        <ele>1500.27</ele>
        <time>2012-01-12T09:10:29Z</time>
      </trkpt>
      <trkpt lat="44.93207" lon="6.81471">
        <ele>1502.2</ele>
        <time>2012-01-12T09:10:43Z</time>
      </trkpt>
      <trkpt lat="44.93201" lon="6.81465">
        <ele>1503.16</ele>
        <time>2012-01-12T09:10:56Z</time>
      </trkpt>
      <trkpt lat="44.93192" lon="6.81472">
        <ele>1504.12</ele>
        <time>2012-01-12T09:11:07Z</time>
      </trkpt>
      <trkpt lat="44.93183" lon="6.81483">
        <ele>1505.56</ele>
        <time>2012-01-12T09:11:20Z</time>
      </trkpt>
      <trkpt lat="44.93175" lon="6.81488">
        <ele>1506.52</ele>
        <time>2012-01-12T09:11:32Z</time>
      </trkpt>
      <trkpt lat="44.93172" lon="6.81491">
        <ele>1507.97</ele>
        <time>2012-01-12T09:11:44Z</time>
      </trkpt>
      <trkpt lat="44.93163" lon="6.81501">
        <ele>1508.93</ele>
        <time>2012-01-12T09:11:57Z</time>
      </trkpt>
      <trkpt lat="44.93157" lon="6.81504">
        <ele>1509.89</ele>
        <time>2012-01-12T09:12:07Z</time>
      </trkpt>
      <trkpt lat="44.9315" lon="6.8151">
        <ele>1510.85</ele>
        <time>2012-01-12T09:12:19Z</time>
      </trkpt>
      <trkpt lat="44.93151" lon="6.81504">
        <ele>1511.81</ele>
        <time>2012-01-12T09:12:33Z</time>
      </trkpt>
      <trkpt lat="44.9315" lon="6.81497">
        <ele>1513.73</ele>
        <time>2012-01-12T09:12:44Z</time>
      </trkpt>
      <trkpt lat="44.93151" lon="6.81482">
        <ele>1516.14</ele>
        <time>2012-01-12T09:12:59Z</time>
      </trkpt>
      <trkpt lat="44.93151" lon="6.8147">
        <ele>1518.06</ele>
        <time>2012-01-12T09:13:12Z</time>
      </trkpt>
      <trkpt lat="44.93147" lon="6.81457">
        <ele>1519.98</ele>
        <time>2012-01-12T09:13:25Z</time>
      </trkpt>
      <trkpt lat="44.9314" lon="6.81453">
        <ele>1520.94</ele>
        <time>2012-01-12T09:13:36Z</time>
      </trkpt>
      <trkpt lat="44.93131" lon="6.81454">
        <ele>1522.39</ele>
        <time>2012-01-12T09:13:48Z</time>
      </trkpt>
      <trkpt lat="44.93121" lon="6.8145">
        <ele>1524.31</ele>
        <time>2012-01-12T09:14:03Z</time>
      </trkpt>
      <trkpt lat="44.93121" lon="6.81451">
        <ele>1525.75</ele>
        <time>2012-01-12T09:14:21Z</time>
      </trkpt>
      <trkpt lat="44.93121" lon="6.81451">
        <ele>1526.23</ele>
        <time>2012-01-12T09:14:37Z</time>
      </trkpt>
      <trkpt lat="44.9312" lon="6.81452">
        <ele>1527.19</ele>
        <time>2012-01-12T09:14:53Z</time>
      </trkpt>
      <trkpt lat="44.93119" lon="6.81451">
        <ele>1527.19</ele>
        <time>2012-01-12T09:15:10Z</time>
      </trkpt>
      <trkpt lat="44.93107" lon="6.81451">
        <ele>1528.15</ele>
        <time>2012-01-12T09:15:22Z</time>
      </trkpt>
      <trkpt lat="44.93104" lon="6.81449">
        <ele>1530.08</ele>
        <time>2012-01-12T09:15:34Z</time>
      </trkpt>
      <trkpt lat="44.93108" lon="6.81434">
        <ele>1532</ele>
        <time>2012-01-12T09:15:49Z</time>
      </trkpt>
      <trkpt lat="44.93109" lon="6.81419">
        <ele>1533.44</ele>
        <time>2012-01-12T09:16:03Z</time>
      </trkpt>
      <trkpt lat="44.93115" lon="6.81403">
        <ele>1535.36</ele>
        <time>2012-01-12T09:16:20Z</time>
      </trkpt>
      <trkpt lat="44.93119" lon="6.81392">
        <ele>1536.8</ele>
        <time>2012-01-12T09:16:32Z</time>
      </trkpt>
      <trkpt lat="44.93125" lon="6.81379">
        <ele>1538.25</ele>
        <time>2012-01-12T09:16:47Z</time>
      </trkpt>
      <trkpt lat="44.93129" lon="6.8137">
        <ele>1540.17</ele>
        <time>2012-01-12T09:17:01Z</time>
      </trkpt>
      <trkpt lat="44.93129" lon="6.81354">
        <ele>1541.61</ele>
        <time>2012-01-12T09:17:17Z</time>
      </trkpt>
      <trkpt lat="44.93127" lon="6.81346">
        <ele>1543.53</ele>
        <time>2012-01-12T09:17:30Z</time>
      </trkpt>
      <trkpt lat="44.93125" lon="6.81345">
        <ele>1544.5</ele>
        <time>2012-01-12T09:17:42Z</time>
      </trkpt>
      <trkpt lat="44.93125" lon="6.81345">
        <ele>1545.46</ele>
        <time>2012-01-12T09:17:48Z</time>
      </trkpt>
      <trkpt lat="44.93112" lon="6.81345">
        <ele>1546.9</ele>
        <time>2012-01-12T09:18:01Z</time>
      </trkpt>
      <trkpt lat="44.93098" lon="6.81347">
        <ele>1549.3</ele>
        <time>2012-01-12T09:18:16Z</time>
      </trkpt>
      <trkpt lat="44.93094" lon="6.8135">
        <ele>1551.22</ele>
        <time>2012-01-12T09:18:30Z</time>
      </trkpt>
      <trkpt lat="44.93084" lon="6.81348">
        <ele>1553.15</ele>
        <time>2012-01-12T09:18:43Z</time>
      </trkpt>
      <trkpt lat="44.93084" lon="6.81342">
        <ele>1554.59</ele>
        <time>2012-01-12T09:18:54Z</time>
      </trkpt>
      <trkpt lat="44.93085" lon="6.81333">
        <ele>1556.03</ele>
        <time>2012-01-12T09:19:08Z</time>
      </trkpt>
      <trkpt lat="44.93085" lon="6.81321">
        <ele>1557.95</ele>
        <time>2012-01-12T09:19:23Z</time>
      </trkpt>
      <trkpt lat="44.93084" lon="6.81312">
        <ele>1558.92</ele>
        <time>2012-01-12T09:19:38Z</time>
      </trkpt>
      <trkpt lat="44.93085" lon="6.81302">
        <ele>1560.84</ele>
        <time>2012-01-12T09:19:51Z</time>
      </trkpt>
      <trkpt lat="44.93087" lon="6.81291">
        <ele>1562.76</ele>
        <time>2012-01-12T09:20:09Z</time>
      </trkpt>
      <trkpt lat="44.93087" lon="6.81291">
        <ele>1564.68</ele>
        <time>2012-01-12T09:20:23Z</time>
      </trkpt>
      <trkpt lat="44.93087" lon="6.81291">
        <ele>1565.64</ele>
        <time>2012-01-12T09:20:39Z</time>
      </trkpt>
      <trkpt lat="44.93072" lon="6.81284">
        <ele>1567.09</ele>
        <time>2012-01-12T09:20:52Z</time>
      </trkpt>
      <trkpt lat="44.93072" lon="6.81284">
        <ele>1569.01</ele>
        <time>2012-01-12T09:21:10Z</time>
      </trkpt>
      <trkpt lat="44.93071" lon="6.81284">
        <ele>1569.97</ele>
        <time>2012-01-12T09:21:26Z</time>
      </trkpt>
      <trkpt lat="44.93071" lon="6.81284">
        <ele>1570.45</ele>
        <time>2012-01-12T09:21:40Z</time>
      </trkpt>
      <trkpt lat="44.93071" lon="6.81284">
        <ele>1571.41</ele>
        <time>2012-01-12T09:21:53Z</time>
      </trkpt>
      <trkpt lat="44.93071" lon="6.81284">
        <ele>1573.33</ele>
        <time>2012-01-12T09:22:08Z</time>
      </trkpt>
      <trkpt lat="44.93069" lon="6.81276">
        <ele>1574.78</ele>
        <time>2012-01-12T09:22:20Z</time>
      </trkpt>
      <trkpt lat="44.93068" lon="6.81274">
        <ele>1575.26</ele>
        <time>2012-01-12T09:22:36Z</time>
      </trkpt>
      <trkpt lat="44.93065" lon="6.81271">
        <ele>1576.22</ele>
        <time>2012-01-12T09:22:52Z</time>
      </trkpt>
      <trkpt lat="44.93049" lon="6.81266">
        <ele>1577.18</ele>
        <time>2012-01-12T09:23:07Z</time>
      </trkpt>
      <trkpt lat="44.93039" lon="6.81266">
        <ele>1578.62</ele>
        <time>2012-01-12T09:23:20Z</time>
      </trkpt>
      <trkpt lat="44.93027" lon="6.81265">
        <ele>1580.06</ele>
        <time>2012-01-12T09:23:33Z</time>
      </trkpt>
      <trkpt lat="44.93026" lon="6.81258">
        <ele>1581.03</ele>
        <time>2012-01-12T09:23:46Z</time>
      </trkpt>
      <trkpt lat="44.93026" lon="6.81258">
        <ele>1581.99</ele>
        <time>2012-01-12T09:23:59Z</time>
      </trkpt>
      <trkpt lat="44.93014" lon="6.81256">
        <ele>1582.95</ele>
        <time>2012-01-12T09:24:13Z</time>
      </trkpt>
      <trkpt lat="44.93007" lon="6.81263">
        <ele>1584.39</ele>
        <time>2012-01-12T09:24:24Z</time>
      </trkpt>
      <trkpt lat="44.92999" lon="6.81269">
        <ele>1585.35</ele>
        <time>2012-01-12T09:24:35Z</time>
      </trkpt>
      <trkpt lat="44.92988" lon="6.81278">
        <ele>1586.79</ele>
        <time>2012-01-12T09:24:49Z</time>
      </trkpt>
      <trkpt lat="44.92981" lon="6.81284">
        <ele>1588.24</ele>
        <time>2012-01-12T09:25:00Z</time>
      </trkpt>
      <trkpt lat="44.92972" lon="6.8129">
        <ele>1589.68</ele>
        <time>2012-01-12T09:25:12Z</time>
      </trkpt>
      <trkpt lat="44.92962" lon="6.81298">
        <ele>1591.12</ele>
        <time>2012-01-12T09:25:25Z</time>
      </trkpt>
      <trkpt lat="44.92954" lon="6.8131">
        <ele>1592.56</ele>
        <time>2012-01-12T09:25:39Z</time>
      </trkpt>
      <trkpt lat="44.92946" lon="6.81325">
        <ele>1594</ele>
        <time>2012-01-12T09:25:52Z</time>
      </trkpt>
      <trkpt lat="44.92936" lon="6.81331">
        <ele>1594.96</ele>
        <time>2012-01-12T09:26:06Z</time>
      </trkpt>
      <trkpt lat="44.92926" lon="6.81337">
        <ele>1596.41</ele>
        <time>2012-01-12T09:26:21Z</time>
      </trkpt>
      <trkpt lat="44.92914" lon="6.81341">
        <ele>1598.33</ele>
        <time>2012-01-12T09:26:36Z</time>
      </trkpt>
      <trkpt lat="44.92903" lon="6.81346">
        <ele>1599.77</ele>
        <time>2012-01-12T09:26:51Z</time>
      </trkpt>
      <trkpt lat="44.929" lon="6.81346">
        <ele>1599.77</ele>
        <time>2012-01-12T09:26:55Z</time>
      </trkpt>
      <trkpt lat="44.92885" lon="6.81347">
        <ele>1601.21</ele>
        <time>2012-01-12T09:27:11Z</time>
      </trkpt>
      <trkpt lat="44.92874" lon="6.81347">
        <ele>1602.17</ele>
        <time>2012-01-12T09:27:23Z</time>
      </trkpt>
      <trkpt lat="44.92859" lon="6.81352">
        <ele>1604.1</ele>
        <time>2012-01-12T09:27:39Z</time>
      </trkpt>
      <trkpt lat="44.92848" lon="6.81355">
        <ele>1605.06</ele>
        <time>2012-01-12T09:27:52Z</time>
      </trkpt>
      <trkpt lat="44.92833" lon="6.81354">
        <ele>1606.5</ele>
        <time>2012-01-12T09:28:06Z</time>
      </trkpt>
      <trkpt lat="44.92821" lon="6.81354">
        <ele>1608.42</ele>
        <time>2012-01-12T09:28:19Z</time>
      </trkpt>
      <trkpt lat="44.92808" lon="6.81355">
        <ele>1609.86</ele>
        <time>2012-01-12T09:28:33Z</time>
      </trkpt>
      <trkpt lat="44.92798" lon="6.81356">
        <ele>1610.83</ele>
        <time>2012-01-12T09:28:47Z</time>
      </trkpt>
      <trkpt lat="44.92782" lon="6.8136">
        <ele>1612.75</ele>
        <time>2012-01-12T09:29:04Z</time>
      </trkpt>
      <trkpt lat="44.92772" lon="6.81358">
        <ele>1614.19</ele>
        <time>2012-01-12T09:29:17Z</time>
      </trkpt>
      <trkpt lat="44.92762" lon="6.81362">
        <ele>1615.63</ele>
        <time>2012-01-12T09:29:31Z</time>
      </trkpt>
      <trkpt lat="44.92758" lon="6.81363">
        <ele>1616.59</ele>
        <time>2012-01-12T09:29:36Z</time>
      </trkpt>
      <trkpt lat="44.9275" lon="6.81365">
        <ele>1617.56</ele>
        <time>2012-01-12T09:29:50Z</time>
      </trkpt>
      <trkpt lat="44.92737" lon="6.81368">
        <ele>1619</ele>
        <time>2012-01-12T09:30:03Z</time>
      </trkpt>
      <trkpt lat="44.92726" lon="6.81365">
        <ele>1620.44</ele>
        <time>2012-01-12T09:30:17Z</time>
      </trkpt>
      <trkpt lat="44.92715" lon="6.81361">
        <ele>1621.88</ele>
        <time>2012-01-12T09:30:32Z</time>
      </trkpt>
      <trkpt lat="44.92702" lon="6.81355">
        <ele>1623.32</ele>
        <time>2012-01-12T09:30:47Z</time>
      </trkpt>
      <trkpt lat="44.92691" lon="6.81353">
        <ele>1625.25</ele>
        <time>2012-01-12T09:31:01Z</time>
      </trkpt>
      <trkpt lat="44.92678" lon="6.81352">
        <ele>1626.69</ele>
        <time>2012-01-12T09:31:15Z</time>
      </trkpt>
      <trkpt lat="44.92667" lon="6.81345">
        <ele>1627.65</ele>
        <time>2012-01-12T09:31:30Z</time>
      </trkpt>
      <trkpt lat="44.92659" lon="6.81341">
        <ele>1629.57</ele>
        <time>2012-01-12T09:31:42Z</time>
      </trkpt>
      <trkpt lat="44.92647" lon="6.81339">
        <ele>1630.53</ele>
        <time>2012-01-12T09:31:55Z</time>
      </trkpt>
      <trkpt lat="44.92637" lon="6.81336">
        <ele>1631.98</ele>
        <time>2012-01-12T09:32:08Z</time>
      </trkpt>
      <trkpt lat="44.92626" lon="6.8133">
        <ele>1633.9</ele>
        <time>2012-01-12T09:32:22Z</time>
      </trkpt>
      <trkpt lat="44.92616" lon="6.81322">
        <ele>1634.86</ele>
        <time>2012-01-12T09:32:37Z</time>
      </trkpt>
      <trkpt lat="44.92606" lon="6.81314">
        <ele>1636.3</ele>
        <time>2012-01-12T09:32:50Z</time>
      </trkpt>
      <trkpt lat="44.92597" lon="6.81307">
        <ele>1637.74</ele>
        <time>2012-01-12T09:33:02Z</time>
      </trkpt>
      <trkpt lat="44.92586" lon="6.81299">
        <ele>1639.19</ele>
        <time>2012-01-12T09:33:16Z</time>
      </trkpt>
      <trkpt lat="44.92574" lon="6.81291">
        <ele>1640.15</ele>
        <time>2012-01-12T09:33:31Z</time>
      </trkpt>
      <trkpt lat="44.92565" lon="6.81283">
        <ele>1642.07</ele>
        <time>2012-01-12T09:33:44Z</time>
      </trkpt>
      <trkpt lat="44.92554" lon="6.81278">
        <ele>1643.51</ele>
        <time>2012-01-12T09:33:58Z</time>
      </trkpt>
      <trkpt lat="44.92545" lon="6.8127">
        <ele>1644.47</ele>
        <time>2012-01-12T09:34:11Z</time>
      </trkpt>
      <trkpt lat="44.92534" lon="6.81265">
        <ele>1646.4</ele>
        <time>2012-01-12T09:34:24Z</time>
      </trkpt>
      <trkpt lat="44.92525" lon="6.81258">
        <ele>1647.84</ele>
        <time>2012-01-12T09:34:40Z</time>
      </trkpt>
      <trkpt lat="44.92517" lon="6.81248">
        <ele>1648.8</ele>
        <time>2012-01-12T09:34:52Z</time>
      </trkpt>
      <trkpt lat="44.92501" lon="6.81237">
        <ele>1650.72</ele>
        <time>2012-01-12T09:35:07Z</time>
      </trkpt>
      <trkpt lat="44.92491" lon="6.81233">
        <ele>1651.68</ele>
        <time>2012-01-12T09:35:21Z</time>
      </trkpt>
      <trkpt lat="44.9248" lon="6.81227">
        <ele>1653.12</ele>
        <time>2012-01-12T09:35:36Z</time>
      </trkpt>
      <trkpt lat="44.92467" lon="6.8122">
        <ele>1655.05</ele>
        <time>2012-01-12T09:35:51Z</time>
      </trkpt>
      <trkpt lat="44.92457" lon="6.81211">
        <ele>1656.01</ele>
        <time>2012-01-12T09:36:04Z</time>
      </trkpt>
      <trkpt lat="44.92447" lon="6.81203">
        <ele>1657.93</ele>
        <time>2012-01-12T09:36:18Z</time>
      </trkpt>
      <trkpt lat="44.92443" lon="6.81201">
        <ele>1658.41</ele>
        <time>2012-01-12T09:36:23Z</time>
      </trkpt>
      <trkpt lat="44.92433" lon="6.81192">
        <ele>1659.85</ele>
        <time>2012-01-12T09:36:37Z</time>
      </trkpt>
      <trkpt lat="44.92422" lon="6.81182">
        <ele>1661.3</ele>
        <time>2012-01-12T09:36:53Z</time>
      </trkpt>
      <trkpt lat="44.92411" lon="6.81173">
        <ele>1663.22</ele>
        <time>2012-01-12T09:37:07Z</time>
      </trkpt>
      <trkpt lat="44.92401" lon="6.81165">
        <ele>1664.66</ele>
        <time>2012-01-12T09:37:23Z</time>
      </trkpt>
      <trkpt lat="44.9239" lon="6.81155">
        <ele>1666.58</ele>
        <time>2012-01-12T09:37:38Z</time>
      </trkpt>
      <trkpt lat="44.92378" lon="6.81146">
        <ele>1667.54</ele>
        <time>2012-01-12T09:37:52Z</time>
      </trkpt>
      <trkpt lat="44.92368" lon="6.81138">
        <ele>1668.99</ele>
        <time>2012-01-12T09:38:07Z</time>
      </trkpt>
      <trkpt lat="44.92357" lon="6.81128">
        <ele>1670.91</ele>
        <time>2012-01-12T09:38:24Z</time>
      </trkpt>
      <trkpt lat="44.92346" lon="6.81121">
        <ele>1672.35</ele>
        <time>2012-01-12T09:38:39Z</time>
      </trkpt>
      <trkpt lat="44.92335" lon="6.81115">
        <ele>1673.31</ele>
        <time>2012-01-12T09:38:52Z</time>
      </trkpt>
      <trkpt lat="44.92324" lon="6.81109">
        <ele>1674.75</ele>
        <time>2012-01-12T09:39:06Z</time>
      </trkpt>
      <trkpt lat="44.92315" lon="6.81101">
        <ele>1676.2</ele>
        <time>2012-01-12T09:39:21Z</time>
      </trkpt>
      <trkpt lat="44.92312" lon="6.81098">
        <ele>1676.68</ele>
        <time>2012-01-12T09:39:25Z</time>
      </trkpt>
      <trkpt lat="44.92305" lon="6.81088">
        <ele>1677.64</ele>
        <time>2012-01-12T09:39:38Z</time>
      </trkpt>
      <trkpt lat="44.92298" lon="6.81075">
        <ele>1679.08</ele>
        <time>2012-01-12T09:39:52Z</time>
      </trkpt>
      <trkpt lat="44.9229" lon="6.81061">
        <ele>1681</ele>
        <time>2012-01-12T09:40:07Z</time>
      </trkpt>
      <trkpt lat="44.92283" lon="6.81045">
        <ele>1682.44</ele>
        <time>2012-01-12T09:40:22Z</time>
      </trkpt>
      <trkpt lat="44.92277" lon="6.81031">
        <ele>1683.89</ele>
        <time>2012-01-12T09:40:36Z</time>
      </trkpt>
      <trkpt lat="44.92269" lon="6.81016">
        <ele>1685.81</ele>
        <time>2012-01-12T09:40:51Z</time>
      </trkpt>
      <trkpt lat="44.92261" lon="6.81002">
        <ele>1686.77</ele>
        <time>2012-01-12T09:41:06Z</time>
      </trkpt>
      <trkpt lat="44.92254" lon="6.80989">
        <ele>1688.21</ele>
        <time>2012-01-12T09:41:19Z</time>
      </trkpt>
      <trkpt lat="44.92246" lon="6.80976">
        <ele>1689.17</ele>
        <time>2012-01-12T09:41:34Z</time>
      </trkpt>
      <trkpt lat="44.92238" lon="6.80961">
        <ele>1691.1</ele>
        <time>2012-01-12T09:41:47Z</time>
      </trkpt>
      <trkpt lat="44.92231" lon="6.80948">
        <ele>1692.06</ele>
        <time>2012-01-12T09:41:59Z</time>
      </trkpt>
      <trkpt lat="44.92224" lon="6.80941">
        <ele>1693.02</ele>
        <time>2012-01-12T09:42:10Z</time>
      </trkpt>
      <trkpt lat="44.92216" lon="6.80933">
        <ele>1694.94</ele>
        <time>2012-01-12T09:42:22Z</time>
      </trkpt>
      <trkpt lat="44.92214" lon="6.80932">
        <ele>1694.94</ele>
        <time>2012-01-12T09:42:25Z</time>
      </trkpt>
      <trkpt lat="44.92204" lon="6.80922">
        <ele>1696.38</ele>
        <time>2012-01-12T09:42:40Z</time>
      </trkpt>
      <trkpt lat="44.9219" lon="6.80912">
        <ele>1697.83</ele>
        <time>2012-01-12T09:42:55Z</time>
      </trkpt>
      <trkpt lat="44.9218" lon="6.80905">
        <ele>1699.27</ele>
        <time>2012-01-12T09:43:10Z</time>
      </trkpt>
      <trkpt lat="44.92168" lon="6.80895">
        <ele>1701.19</ele>
        <time>2012-01-12T09:43:26Z</time>
      </trkpt>
      <trkpt lat="44.92163" lon="6.80883">
        <ele>1702.15</ele>
        <time>2012-01-12T09:43:40Z</time>
      </trkpt>
      <trkpt lat="44.92156" lon="6.80872">
        <ele>1703.59</ele>
        <time>2012-01-12T09:43:54Z</time>
      </trkpt>
      <trkpt lat="44.92148" lon="6.80861">
        <ele>1705.04</ele>
        <time>2012-01-12T09:44:09Z</time>
      </trkpt>
      <trkpt lat="44.92138" lon="6.80847">
        <ele>1706.48</ele>
        <time>2012-01-12T09:44:25Z</time>
      </trkpt>
      <trkpt lat="44.92128" lon="6.80834">
        <ele>1708.4</ele>
        <time>2012-01-12T09:44:40Z</time>
      </trkpt>
      <trkpt lat="44.9212" lon="6.80822">
        <ele>1709.36</ele>
        <time>2012-01-12T09:44:54Z</time>
      </trkpt>
      <trkpt lat="44.92111" lon="6.8081">
        <ele>1710.8</ele>
        <time>2012-01-12T09:45:08Z</time>
      </trkpt>
      <trkpt lat="44.92103" lon="6.80795">
        <ele>1712.25</ele>
        <time>2012-01-12T09:45:24Z</time>
      </trkpt>
      <trkpt lat="44.92097" lon="6.80782">
        <ele>1713.21</ele>
        <time>2012-01-12T09:45:37Z</time>
      </trkpt>
      <trkpt lat="44.92093" lon="6.80766">
        <ele>1714.17</ele>
        <time>2012-01-12T09:45:52Z</time>
      </trkpt>
      <trkpt lat="44.92096" lon="6.80755">
        <ele>1716.09</ele>
        <time>2012-01-12T09:46:05Z</time>
      </trkpt>
      <trkpt lat="44.92107" lon="6.80753">
        <ele>1717.05</ele>
        <time>2012-01-12T09:46:19Z</time>
      </trkpt>
      <trkpt lat="44.92112" lon="6.80747">
        <ele>1718.49</ele>
        <time>2012-01-12T09:46:33Z</time>
      </trkpt>
      <trkpt lat="44.92117" lon="6.80738">
        <ele>1719.94</ele>
        <time>2012-01-12T09:46:48Z</time>
      </trkpt>
      <trkpt lat="44.92119" lon="6.80726">
        <ele>1721.86</ele>
        <time>2012-01-12T09:47:03Z</time>
      </trkpt>
      <trkpt lat="44.92118" lon="6.8072">
        <ele>1723.3</ele>
        <time>2012-01-12T09:47:17Z</time>
      </trkpt>
      <trkpt lat="44.92119" lon="6.80713">
        <ele>1724.74</ele>
        <time>2012-01-12T09:47:30Z</time>
      </trkpt>
      <trkpt lat="44.92119" lon="6.80711">
        <ele>1726.67</ele>
        <time>2012-01-12T09:47:46Z</time>
      </trkpt>
      <trkpt lat="44.92118" lon="6.80705">
        <ele>1728.11</ele>
        <time>2012-01-12T09:47:58Z</time>
      </trkpt>
      <trkpt lat="44.92117" lon="6.80704">
        <ele>1729.07</ele>
        <time>2012-01-12T09:48:12Z</time>
      </trkpt>
      <trkpt lat="44.92117" lon="6.80704">
        <ele>1730.99</ele>
        <time>2012-01-12T09:48:27Z</time>
      </trkpt>
      <trkpt lat="44.92114" lon="6.807">
        <ele>1731.95</ele>
        <time>2012-01-12T09:48:42Z</time>
      </trkpt>
      <trkpt lat="44.92112" lon="6.80697">
        <ele>1731.95</ele>
        <time>2012-01-12T09:49:01Z</time>
      </trkpt>
      <trkpt lat="44.92112" lon="6.80696">
        <ele>1731.95</ele>
        <time>2012-01-12T09:49:28Z</time>
      </trkpt>
      <trkpt lat="44.92112" lon="6.80696">
        <ele>1731.95</ele>
        <time>2012-01-12T09:49:51Z</time>
      </trkpt>
      <trkpt lat="44.92111" lon="6.80696">
        <ele>1731.95</ele>
        <time>2012-01-12T09:50:10Z</time>
      </trkpt>
      <trkpt lat="44.92111" lon="6.80696">
        <ele>1731.95</ele>
        <time>2012-01-12T09:50:27Z</time>
      </trkpt>
      <trkpt lat="44.92111" lon="6.80696">
        <ele>1731.95</ele>
        <time>2012-01-12T09:50:36Z</time>
      </trkpt>
      <trkpt lat="44.92111" lon="6.80695">
        <ele>1732.43</ele>
        <time>2012-01-12T09:50:58Z</time>
      </trkpt>
      <trkpt lat="44.92111" lon="6.80695">
        <ele>1732.91</ele>
        <time>2012-01-12T09:51:14Z</time>
      </trkpt>
      <trkpt lat="44.92109" lon="6.80682">
        <ele>1733.88</ele>
        <time>2012-01-12T09:51:30Z</time>
      </trkpt>
      <trkpt lat="44.92108" lon="6.80673">
        <ele>1736.28</ele>
        <time>2012-01-12T09:51:45Z</time>
      </trkpt>
      <trkpt lat="44.92109" lon="6.80661">
        <ele>1737.72</ele>
        <time>2012-01-12T09:51:59Z</time>
      </trkpt>
      <trkpt lat="44.9211" lon="6.80652">
        <ele>1739.64</ele>
        <time>2012-01-12T09:52:15Z</time>
      </trkpt>
      <trkpt lat="44.92111" lon="6.80647">
        <ele>1740.6</ele>
        <time>2012-01-12T09:52:31Z</time>
      </trkpt>
      <trkpt lat="44.92112" lon="6.80645">
        <ele>1741.08</ele>
        <time>2012-01-12T09:52:46Z</time>
      </trkpt>
      <trkpt lat="44.92118" lon="6.80637">
        <ele>1743.01</ele>
        <time>2012-01-12T09:53:03Z</time>
      </trkpt>
      <trkpt lat="44.92123" lon="6.8063">
        <ele>1744.93</ele>
        <time>2012-01-12T09:53:17Z</time>
      </trkpt>
      <trkpt lat="44.92125" lon="6.80629">
        <ele>1745.89</ele>
        <time>2012-01-12T09:53:29Z</time>
      </trkpt>
      <trkpt lat="44.9212" lon="6.8062">
        <ele>1746.37</ele>
        <time>2012-01-12T09:53:42Z</time>
      </trkpt>
      <trkpt lat="44.9211" lon="6.80613">
        <ele>1747.81</ele>
        <time>2012-01-12T09:53:56Z</time>
      </trkpt>
      <trkpt lat="44.92107" lon="6.80611">
        <ele>1747.81</ele>
        <time>2012-01-12T09:54:00Z</time>
      </trkpt>
      <trkpt lat="44.92096" lon="6.80608">
        <ele>1749.74</ele>
        <time>2012-01-12T09:54:14Z</time>
      </trkpt>
      <trkpt lat="44.92084" lon="6.80609">
        <ele>1750.7</ele>
        <time>2012-01-12T09:54:30Z</time>
      </trkpt>
      <trkpt lat="44.92073" lon="6.80616">
        <ele>1752.14</ele>
        <time>2012-01-12T09:54:44Z</time>
      </trkpt>
      <trkpt lat="44.92064" lon="6.80621">
        <ele>1754.06</ele>
        <time>2012-01-12T09:54:57Z</time>
      </trkpt>
      <trkpt lat="44.92053" lon="6.80623">
        <ele>1755.5</ele>
        <time>2012-01-12T09:55:13Z</time>
      </trkpt>
      <trkpt lat="44.92038" lon="6.80623">
        <ele>1757.43</ele>
        <time>2012-01-12T09:55:29Z</time>
      </trkpt>
      <trkpt lat="44.92033" lon="6.80623">
        <ele>1757.91</ele>
        <time>2012-01-12T09:55:36Z</time>
      </trkpt>
      <trkpt lat="44.92023" lon="6.80621">
        <ele>1758.87</ele>
        <time>2012-01-12T09:55:48Z</time>
      </trkpt>
      <trkpt lat="44.9201" lon="6.80622">
        <ele>1759.83</ele>
        <time>2012-01-12T09:56:03Z</time>
      </trkpt>
      <trkpt lat="44.91997" lon="6.80622">
        <ele>1761.75</ele>
        <time>2012-01-12T09:56:16Z</time>
      </trkpt>
      <trkpt lat="44.91992" lon="6.8062">
        <ele>1762.23</ele>
        <time>2012-01-12T09:56:21Z</time>
      </trkpt>
      <trkpt lat="44.9198" lon="6.80613">
        <ele>1763.2</ele>
        <time>2012-01-12T09:56:36Z</time>
      </trkpt>
      <trkpt lat="44.9197" lon="6.80603">
        <ele>1765.6</ele>
        <time>2012-01-12T09:56:51Z</time>
      </trkpt>
      <trkpt lat="44.91967" lon="6.806">
        <ele>1766.56</ele>
        <time>2012-01-12T09:57:10Z</time>
      </trkpt>
      <trkpt lat="44.9196" lon="6.80593">
        <ele>1768</ele>
        <time>2012-01-12T09:57:26Z</time>
      </trkpt>
      <trkpt lat="44.91949" lon="6.80581">
        <ele>1768.48</ele>
        <time>2012-01-12T09:57:40Z</time>
      </trkpt>
      <trkpt lat="44.91938" lon="6.80571">
        <ele>1770.41</ele>
        <time>2012-01-12T09:57:56Z</time>
      </trkpt>
      <trkpt lat="44.9193" lon="6.80561">
        <ele>1771.37</ele>
        <time>2012-01-12T09:58:09Z</time>
      </trkpt>
      <trkpt lat="44.91919" lon="6.80549">
        <ele>1772.81</ele>
        <time>2012-01-12T09:58:25Z</time>
      </trkpt>
      <trkpt lat="44.91909" lon="6.80538">
        <ele>1774.25</ele>
        <time>2012-01-12T09:58:40Z</time>
      </trkpt>
      <trkpt lat="44.91897" lon="6.80527">
        <ele>1775.69</ele>
        <time>2012-01-12T09:58:54Z</time>
      </trkpt>
      <trkpt lat="44.91884" lon="6.8052">
        <ele>1777.13</ele>
        <time>2012-01-12T09:59:09Z</time>
      </trkpt>
      <trkpt lat="44.91881" lon="6.8052">
        <ele>1777.61</ele>
        <time>2012-01-12T09:59:13Z</time>
      </trkpt>
      <trkpt lat="44.91877" lon="6.80523">
        <ele>1778.58</ele>
        <time>2012-01-12T09:59:18Z</time>
      </trkpt>
      <trkpt lat="44.9187" lon="6.80535">
        <ele>1779.54</ele>
        <time>2012-01-12T09:59:32Z</time>
      </trkpt>
      <trkpt lat="44.91868" lon="6.8055">
        <ele>1780.5</ele>
        <time>2012-01-12T09:59:46Z</time>
      </trkpt>
      <trkpt lat="44.91865" lon="6.80564">
        <ele>1781.46</ele>
        <time>2012-01-12T09:59:59Z</time>
      </trkpt>
      <trkpt lat="44.91861" lon="6.80579">
        <ele>1783.38</ele>
        <time>2012-01-12T10:00:13Z</time>
      </trkpt>
      <trkpt lat="44.91859" lon="6.80589">
        <ele>1784.34</ele>
        <time>2012-01-12T10:00:26Z</time>
      </trkpt>
      <trkpt lat="44.91859" lon="6.80589">
        <ele>1785.31</ele>
        <time>2012-01-12T10:00:55Z</time>
      </trkpt>
      <trkpt lat="44.91859" lon="6.8059">
        <ele>1785.31</ele>
        <time>2012-01-12T10:01:15Z</time>
      </trkpt>
      <trkpt lat="44.91848" lon="6.806">
        <ele>1786.27</ele>
        <time>2012-01-12T10:01:29Z</time>
      </trkpt>
      <trkpt lat="44.91838" lon="6.80612">
        <ele>1788.19</ele>
        <time>2012-01-12T10:01:44Z</time>
      </trkpt>
      <trkpt lat="44.91829" lon="6.80615">
        <ele>1789.63</ele>
        <time>2012-01-12T10:02:01Z</time>
      </trkpt>
      <trkpt lat="44.91818" lon="6.80613">
        <ele>1791.07</ele>
        <time>2012-01-12T10:02:14Z</time>
      </trkpt>
      <trkpt lat="44.91807" lon="6.80608">
        <ele>1792.03</ele>
        <time>2012-01-12T10:02:28Z</time>
      </trkpt>
      <trkpt lat="44.91796" lon="6.80603">
        <ele>1793.48</ele>
        <time>2012-01-12T10:02:41Z</time>
      </trkpt>
      <trkpt lat="44.91792" lon="6.80603">
        <ele>1794.44</ele>
        <time>2012-01-12T10:02:46Z</time>
      </trkpt>
      <trkpt lat="44.91789" lon="6.80603">
        <ele>1793.96</ele>
        <time>2012-01-12T10:02:49Z</time>
      </trkpt>
      <trkpt lat="44.91777" lon="6.80609">
        <ele>1795.88</ele>
        <time>2012-01-12T10:03:05Z</time>
      </trkpt>
      <trkpt lat="44.91766" lon="6.8061">
        <ele>1797.32</ele>
        <time>2012-01-12T10:03:18Z</time>
      </trkpt>
      <trkpt lat="44.91757" lon="6.80602">
        <ele>1798.76</ele>
        <time>2012-01-12T10:03:32Z</time>
      </trkpt>
      <trkpt lat="44.91749" lon="6.80589">
        <ele>1800.69</ele>
        <time>2012-01-12T10:03:47Z</time>
      </trkpt>
      <trkpt lat="44.91747" lon="6.80573">
        <ele>1802.13</ele>
        <time>2012-01-12T10:04:01Z</time>
      </trkpt>
      <trkpt lat="44.91745" lon="6.8055">
        <ele>1803.57</ele>
        <time>2012-01-12T10:04:17Z</time>
      </trkpt>
      <trkpt lat="44.91745" lon="6.80538">
        <ele>1804.53</ele>
        <time>2012-01-12T10:04:25Z</time>
      </trkpt>
      <trkpt lat="44.91746" lon="6.80519">
        <ele>1805.49</ele>
        <time>2012-01-12T10:04:40Z</time>
      </trkpt>
      <trkpt lat="44.91746" lon="6.80501">
        <ele>1806.45</ele>
        <time>2012-01-12T10:04:55Z</time>
      </trkpt>
      <trkpt lat="44.91752" lon="6.80484">
        <ele>1807.42</ele>
        <time>2012-01-12T10:05:10Z</time>
      </trkpt>
      <trkpt lat="44.91761" lon="6.8047">
        <ele>1809.34</ele>
        <time>2012-01-12T10:05:25Z</time>
      </trkpt>
      <trkpt lat="44.91767" lon="6.80453">
        <ele>1810.78</ele>
        <time>2012-01-12T10:05:43Z</time>
      </trkpt>
      <trkpt lat="44.91762" lon="6.80442">
        <ele>1811.74</ele>
        <time>2012-01-12T10:05:57Z</time>
      </trkpt>
      <trkpt lat="44.91755" lon="6.8043">
        <ele>1814.15</ele>
        <time>2012-01-12T10:06:12Z</time>
      </trkpt>
      <trkpt lat="44.91752" lon="6.80418">
        <ele>1815.11</ele>
        <time>2012-01-12T10:06:26Z</time>
      </trkpt>
      <trkpt lat="44.9175" lon="6.80401">
        <ele>1816.55</ele>
        <time>2012-01-12T10:06:41Z</time>
      </trkpt>
      <trkpt lat="44.91746" lon="6.80384">
        <ele>1818.47</ele>
        <time>2012-01-12T10:06:56Z</time>
      </trkpt>
      <trkpt lat="44.9174" lon="6.8037">
        <ele>1819.91</ele>
        <time>2012-01-12T10:07:11Z</time>
      </trkpt>
      <trkpt lat="44.91731" lon="6.80353">
        <ele>1820.87</ele>
        <time>2012-01-12T10:07:26Z</time>
      </trkpt>
      <trkpt lat="44.9172" lon="6.80345">
        <ele>1822.32</ele>
        <time>2012-01-12T10:07:40Z</time>
      </trkpt>
      <trkpt lat="44.91709" lon="6.80342">
        <ele>1824.24</ele>
        <time>2012-01-12T10:07:56Z</time>
      </trkpt>
      <trkpt lat="44.91707" lon="6.8036">
        <ele>1825.2</ele>
        <time>2012-01-12T10:08:11Z</time>
      </trkpt>
      <trkpt lat="44.91711" lon="6.80373">
        <ele>1826.16</ele>
        <time>2012-01-12T10:08:23Z</time>
      </trkpt>
      <trkpt lat="44.91706" lon="6.80386">
        <ele>1827.6</ele>
        <time>2012-01-12T10:08:38Z</time>
      </trkpt>
      <trkpt lat="44.91698" lon="6.8038">
        <ele>1829.53</ele>
        <time>2012-01-12T10:08:53Z</time>
      </trkpt>
      <trkpt lat="44.91692" lon="6.80368">
        <ele>1830.49</ele>
        <time>2012-01-12T10:09:06Z</time>
      </trkpt>
      <trkpt lat="44.91684" lon="6.80353">
        <ele>1831.93</ele>
        <time>2012-01-12T10:09:22Z</time>
      </trkpt>
      <trkpt lat="44.91677" lon="6.80341">
        <ele>1833.85</ele>
        <time>2012-01-12T10:09:34Z</time>
      </trkpt>
      <trkpt lat="44.91668" lon="6.80332">
        <ele>1834.81</ele>
        <time>2012-01-12T10:09:46Z</time>
      </trkpt>
      <trkpt lat="44.91657" lon="6.80324">
        <ele>1836.26</ele>
        <time>2012-01-12T10:10:00Z</time>
      </trkpt>
      <trkpt lat="44.91647" lon="6.80317">
        <ele>1837.22</ele>
        <time>2012-01-12T10:10:14Z</time>
      </trkpt>
      <trkpt lat="44.91635" lon="6.80319">
        <ele>1839.14</ele>
        <time>2012-01-12T10:10:29Z</time>
      </trkpt>
      <trkpt lat="44.91628" lon="6.80328">
        <ele>1840.1</ele>
        <time>2012-01-12T10:10:42Z</time>
      </trkpt>
      <trkpt lat="44.91619" lon="6.80341">
        <ele>1841.54</ele>
        <time>2012-01-12T10:10:56Z</time>
      </trkpt>
      <trkpt lat="44.91605" lon="6.80348">
        <ele>1842.98</ele>
        <time>2012-01-12T10:11:12Z</time>
      </trkpt>
      <trkpt lat="44.91603" lon="6.80348">
        <ele>1842.98</ele>
        <time>2012-01-12T10:11:15Z</time>
      </trkpt>
      <trkpt lat="44.9159" lon="6.80349">
        <ele>1843.95</ele>
        <time>2012-01-12T10:11:29Z</time>
      </trkpt>
      <trkpt lat="44.91579" lon="6.80343">
        <ele>1845.39</ele>
        <time>2012-01-12T10:11:43Z</time>
      </trkpt>
      <trkpt lat="44.9157" lon="6.80335">
        <ele>1846.35</ele>
        <time>2012-01-12T10:11:56Z</time>
      </trkpt>
      <trkpt lat="44.91562" lon="6.8032">
        <ele>1847.31</ele>
        <time>2012-01-12T10:12:10Z</time>
      </trkpt>
      <trkpt lat="44.91562" lon="6.80304">
        <ele>1848.75</ele>
        <time>2012-01-12T10:12:26Z</time>
      </trkpt>
      <trkpt lat="44.9157" lon="6.80289">
        <ele>1850.19</ele>
        <time>2012-01-12T10:12:41Z</time>
      </trkpt>
      <trkpt lat="44.91579" lon="6.80277">
        <ele>1851.64</ele>
        <time>2012-01-12T10:12:56Z</time>
      </trkpt>
      <trkpt lat="44.91587" lon="6.80264">
        <ele>1853.56</ele>
        <time>2012-01-12T10:13:11Z</time>
      </trkpt>
      <trkpt lat="44.91592" lon="6.80248">
        <ele>1855</ele>
        <time>2012-01-12T10:13:25Z</time>
      </trkpt>
      <trkpt lat="44.91595" lon="6.80232">
        <ele>1855.96</ele>
        <time>2012-01-12T10:13:40Z</time>
      </trkpt>
      <trkpt lat="44.91597" lon="6.80216">
        <ele>1857.4</ele>
        <time>2012-01-12T10:13:54Z</time>
      </trkpt>
      <trkpt lat="44.91597" lon="6.80211">
        <ele>1858.37</ele>
        <time>2012-01-12T10:14:12Z</time>
      </trkpt>
      <trkpt lat="44.91597" lon="6.80211">
        <ele>1858.37</ele>
        <time>2012-01-12T10:14:24Z</time>
      </trkpt>
      <trkpt lat="44.91597" lon="6.80211">
        <ele>1857.4</ele>
        <time>2012-01-12T10:14:59Z</time>
      </trkpt>
      <trkpt lat="44.91596" lon="6.80212">
        <ele>1857.4</ele>
        <time>2012-01-12T10:15:18Z</time>
      </trkpt>
      <trkpt lat="44.91596" lon="6.80212">
        <ele>1858.37</ele>
        <time>2012-01-12T10:15:29Z</time>
      </trkpt>
      <trkpt lat="44.91596" lon="6.80212">
        <ele>1858.85</ele>
        <time>2012-01-12T10:15:46Z</time>
      </trkpt>
      <trkpt lat="44.91595" lon="6.80205">
        <ele>1858.85</ele>
        <time>2012-01-12T10:16:05Z</time>
      </trkpt>
      <trkpt lat="44.91591" lon="6.80186">
        <ele>1859.33</ele>
        <time>2012-01-12T10:16:23Z</time>
      </trkpt>
      <trkpt lat="44.91588" lon="6.80178">
        <ele>1859.33</ele>
        <time>2012-01-12T10:16:30Z</time>
      </trkpt>
      <trkpt lat="44.91575" lon="6.80166">
        <ele>1860.77</ele>
        <time>2012-01-12T10:16:47Z</time>
      </trkpt>
      <trkpt lat="44.91565" lon="6.80166">
        <ele>1862.21</ele>
        <time>2012-01-12T10:17:00Z</time>
      </trkpt>
      <trkpt lat="44.91553" lon="6.8017">
        <ele>1863.65</ele>
        <time>2012-01-12T10:17:15Z</time>
      </trkpt>
      <trkpt lat="44.91542" lon="6.80173">
        <ele>1864.61</ele>
        <time>2012-01-12T10:17:29Z</time>
      </trkpt>
      <trkpt lat="44.91533" lon="6.80168">
        <ele>1866.06</ele>
        <time>2012-01-12T10:17:42Z</time>
      </trkpt>
      <trkpt lat="44.91524" lon="6.80161">
        <ele>1867.98</ele>
        <time>2012-01-12T10:17:57Z</time>
      </trkpt>
      <trkpt lat="44.91516" lon="6.8016">
        <ele>1869.9</ele>
        <time>2012-01-12T10:18:10Z</time>
      </trkpt>
      <trkpt lat="44.91506" lon="6.80162">
        <ele>1871.82</ele>
        <time>2012-01-12T10:18:23Z</time>
      </trkpt>
      <trkpt lat="44.91495" lon="6.80162">
        <ele>1873.27</ele>
        <time>2012-01-12T10:18:38Z</time>
      </trkpt>
      <trkpt lat="44.91486" lon="6.80154">
        <ele>1874.71</ele>
        <time>2012-01-12T10:18:52Z</time>
      </trkpt>
      <trkpt lat="44.91477" lon="6.80139">
        <ele>1876.63</ele>
        <time>2012-01-12T10:19:08Z</time>
      </trkpt>
      <trkpt lat="44.91468" lon="6.80127">
        <ele>1878.07</ele>
        <time>2012-01-12T10:19:22Z</time>
      </trkpt>
      <trkpt lat="44.91458" lon="6.80126">
        <ele>1880</ele>
        <time>2012-01-12T10:19:38Z</time>
      </trkpt>
      <trkpt lat="44.91449" lon="6.80135">
        <ele>1881.44</ele>
        <time>2012-01-12T10:19:54Z</time>
      </trkpt>
      <trkpt lat="44.91438" lon="6.80141">
        <ele>1882.88</ele>
        <time>2012-01-12T10:20:08Z</time>
      </trkpt>
      <trkpt lat="44.91426" lon="6.8014">
        <ele>1884.8</ele>
        <time>2012-01-12T10:20:24Z</time>
      </trkpt>
      <trkpt lat="44.91423" lon="6.80136">
        <ele>1886.24</ele>
        <time>2012-01-12T10:20:37Z</time>
      </trkpt>
      <trkpt lat="44.91415" lon="6.80118">
        <ele>1888.17</ele>
        <time>2012-01-12T10:20:54Z</time>
      </trkpt>
      <trkpt lat="44.91412" lon="6.80109">
        <ele>1889.13</ele>
        <time>2012-01-12T10:21:07Z</time>
      </trkpt>
      <trkpt lat="44.91408" lon="6.80107">
        <ele>1890.57</ele>
        <time>2012-01-12T10:21:22Z</time>
      </trkpt>
      <trkpt lat="44.91394" lon="6.80103">
        <ele>1892.49</ele>
        <time>2012-01-12T10:21:36Z</time>
      </trkpt>
      <trkpt lat="44.9138" lon="6.80098">
        <ele>1893.93</ele>
        <time>2012-01-12T10:21:53Z</time>
      </trkpt>
      <trkpt lat="44.91368" lon="6.80091">
        <ele>1895.86</ele>
        <time>2012-01-12T10:22:07Z</time>
      </trkpt>
      <trkpt lat="44.91354" lon="6.80084">
        <ele>1897.3</ele>
        <time>2012-01-12T10:22:22Z</time>
      </trkpt>
      <trkpt lat="44.91344" lon="6.80074">
        <ele>1898.26</ele>
        <time>2012-01-12T10:22:35Z</time>
      </trkpt>
      <trkpt lat="44.91334" lon="6.80061">
        <ele>1899.22</ele>
        <time>2012-01-12T10:22:50Z</time>
      </trkpt>
      <trkpt lat="44.91331" lon="6.80058">
        <ele>1899.7</ele>
        <time>2012-01-12T10:22:53Z</time>
      </trkpt>
      <trkpt lat="44.91319" lon="6.80048">
        <ele>1900.66</ele>
        <time>2012-01-12T10:23:08Z</time>
      </trkpt>
      <trkpt lat="44.91309" lon="6.80047">
        <ele>1902.11</ele>
        <time>2012-01-12T10:23:21Z</time>
      </trkpt>
      <trkpt lat="44.91302" lon="6.80036">
        <ele>1903.07</ele>
        <time>2012-01-12T10:23:34Z</time>
      </trkpt>
      <trkpt lat="44.91302" lon="6.80023">
        <ele>1904.03</ele>
        <time>2012-01-12T10:23:45Z</time>
      </trkpt>
      <trkpt lat="44.91301" lon="6.80006">
        <ele>1905.47</ele>
        <time>2012-01-12T10:23:59Z</time>
      </trkpt>
      <trkpt lat="44.91298" lon="6.79989">
        <ele>1906.43</ele>
        <time>2012-01-12T10:24:13Z</time>
      </trkpt>
      <trkpt lat="44.91295" lon="6.79974">
        <ele>1908.35</ele>
        <time>2012-01-12T10:24:28Z</time>
      </trkpt>
      <trkpt lat="44.91289" lon="6.79961">
        <ele>1909.8</ele>
        <time>2012-01-12T10:24:41Z</time>
      </trkpt>
      <trkpt lat="44.91285" lon="6.79947">
        <ele>1912.2</ele>
        <time>2012-01-12T10:24:56Z</time>
      </trkpt>
      <trkpt lat="44.9128" lon="6.79935">
        <ele>1913.16</ele>
        <time>2012-01-12T10:25:09Z</time>
      </trkpt>
      <trkpt lat="44.91267" lon="6.79923">
        <ele>1915.08</ele>
        <time>2012-01-12T10:25:27Z</time>
      </trkpt>
      <trkpt lat="44.91256" lon="6.79921">
        <ele>1917.01</ele>
        <time>2012-01-12T10:25:41Z</time>
      </trkpt>
      <trkpt lat="44.91246" lon="6.79927">
        <ele>1918.45</ele>
        <time>2012-01-12T10:25:55Z</time>
      </trkpt>
      <trkpt lat="44.91235" lon="6.79936">
        <ele>1920.37</ele>
        <time>2012-01-12T10:26:09Z</time>
      </trkpt>
      <trkpt lat="44.91226" lon="6.79943">
        <ele>1921.33</ele>
        <time>2012-01-12T10:26:19Z</time>
      </trkpt>
      <trkpt lat="44.91214" lon="6.7995">
        <ele>1922.77</ele>
        <time>2012-01-12T10:26:34Z</time>
      </trkpt>
      <trkpt lat="44.91201" lon="6.79956">
        <ele>1923.74</ele>
        <time>2012-01-12T10:26:47Z</time>
      </trkpt>
      <trkpt lat="44.91188" lon="6.79964">
        <ele>1926.14</ele>
        <time>2012-01-12T10:27:05Z</time>
      </trkpt>
      <trkpt lat="44.91178" lon="6.79972">
        <ele>1927.1</ele>
        <time>2012-01-12T10:27:19Z</time>
      </trkpt>
      <trkpt lat="44.9117" lon="6.79982">
        <ele>1929.02</ele>
        <time>2012-01-12T10:27:32Z</time>
      </trkpt>
      <trkpt lat="44.91162" lon="6.79991">
        <ele>1930.46</ele>
        <time>2012-01-12T10:27:46Z</time>
      </trkpt>
      <trkpt lat="44.91157" lon="6.79999">
        <ele>1931.43</ele>
        <time>2012-01-12T10:27:56Z</time>
      </trkpt>
      <trkpt lat="44.91145" lon="6.8001">
        <ele>1933.35</ele>
        <time>2012-01-12T10:28:11Z</time>
      </trkpt>
      <trkpt lat="44.91137" lon="6.80015">
        <ele>1934.31</ele>
        <time>2012-01-12T10:28:21Z</time>
      </trkpt>
      <trkpt lat="44.91125" lon="6.80025">
        <ele>1936.23</ele>
        <time>2012-01-12T10:28:37Z</time>
      </trkpt>
      <trkpt lat="44.91116" lon="6.80036">
        <ele>1937.67</ele>
        <time>2012-01-12T10:28:52Z</time>
      </trkpt>
      <trkpt lat="44.91106" lon="6.80044">
        <ele>1939.6</ele>
        <time>2012-01-12T10:29:06Z</time>
      </trkpt>
      <trkpt lat="44.91095" lon="6.80042">
        <ele>1940.56</ele>
        <time>2012-01-12T10:29:19Z</time>
      </trkpt>
      <trkpt lat="44.91085" lon="6.80036">
        <ele>1942</ele>
        <time>2012-01-12T10:29:31Z</time>
      </trkpt>
      <trkpt lat="44.91074" lon="6.80029">
        <ele>1943.92</ele>
        <time>2012-01-12T10:29:46Z</time>
      </trkpt>
      <trkpt lat="44.91072" lon="6.80028">
        <ele>1944.88</ele>
        <time>2012-01-12T10:29:58Z</time>
      </trkpt>
      <trkpt lat="44.91071" lon="6.80027">
        <ele>1944.88</ele>
        <time>2012-01-12T10:30:11Z</time>
      </trkpt>
      <trkpt lat="44.91071" lon="6.80027">
        <ele>1944.88</ele>
        <time>2012-01-12T10:30:37Z</time>
      </trkpt>
      <trkpt lat="44.91071" lon="6.80028">
        <ele>1944.88</ele>
        <time>2012-01-12T10:31:10Z</time>
      </trkpt>
      <trkpt lat="44.91071" lon="6.80028">
        <ele>1944.88</ele>
        <time>2012-01-12T10:31:23Z</time>
      </trkpt>
      <trkpt lat="44.91071" lon="6.80028">
        <ele>1945.36</ele>
        <time>2012-01-12T10:31:42Z</time>
      </trkpt>
      <trkpt lat="44.9107" lon="6.80028">
        <ele>1945.36</ele>
        <time>2012-01-12T10:32:01Z</time>
      </trkpt>
      <trkpt lat="44.91056" lon="6.80027">
        <ele>1946.33</ele>
        <time>2012-01-12T10:32:16Z</time>
      </trkpt>
      <trkpt lat="44.91047" lon="6.80029">
        <ele>1947.77</ele>
        <time>2012-01-12T10:32:27Z</time>
      </trkpt>
      <trkpt lat="44.91037" lon="6.80032">
        <ele>1949.21</ele>
        <time>2012-01-12T10:32:41Z</time>
      </trkpt>
      <trkpt lat="44.91022" lon="6.80035">
        <ele>1951.13</ele>
        <time>2012-01-12T10:32:59Z</time>
      </trkpt>
      <trkpt lat="44.91013" lon="6.80039">
        <ele>1952.57</ele>
        <time>2012-01-12T10:33:13Z</time>
      </trkpt>
      <trkpt lat="44.91001" lon="6.80033">
        <ele>1954.02</ele>
        <time>2012-01-12T10:33:27Z</time>
      </trkpt>
      <trkpt lat="44.90987" lon="6.80025">
        <ele>1955.46</ele>
        <time>2012-01-12T10:33:44Z</time>
      </trkpt>
      <trkpt lat="44.90976" lon="6.80021">
        <ele>1957.38</ele>
        <time>2012-01-12T10:33:58Z</time>
      </trkpt>
      <trkpt lat="44.90964" lon="6.80013">
        <ele>1958.34</ele>
        <time>2012-01-12T10:34:13Z</time>
      </trkpt>
      <trkpt lat="44.90952" lon="6.80007">
        <ele>1959.3</ele>
        <time>2012-01-12T10:34:26Z</time>
      </trkpt>
      <trkpt lat="44.90938" lon="6.8">
        <ele>1960.27</ele>
        <time>2012-01-12T10:34:41Z</time>
      </trkpt>
      <trkpt lat="44.90925" lon="6.79989">
        <ele>1961.71</ele>
        <time>2012-01-12T10:34:56Z</time>
      </trkpt>
      <trkpt lat="44.90912" lon="6.79978">
        <ele>1963.15</ele>
        <time>2012-01-12T10:35:11Z</time>
      </trkpt>
      <trkpt lat="44.90901" lon="6.7997">
        <ele>1964.11</ele>
        <time>2012-01-12T10:35:25Z</time>
      </trkpt>
      <trkpt lat="44.90888" lon="6.79955">
        <ele>1965.55</ele>
        <time>2012-01-12T10:35:40Z</time>
      </trkpt>
      <trkpt lat="44.90875" lon="6.79946">
        <ele>1966.99</ele>
        <time>2012-01-12T10:35:56Z</time>
      </trkpt>
      <trkpt lat="44.90861" lon="6.79937">
        <ele>1967.96</ele>
        <time>2012-01-12T10:36:11Z</time>
      </trkpt>
      <trkpt lat="44.90845" lon="6.79934">
        <ele>1967.96</ele>
        <time>2012-01-12T10:36:23Z</time>
      </trkpt>
      <trkpt lat="44.90824" lon="6.79935">
        <ele>1968.44</ele>
        <time>2012-01-12T10:36:38Z</time>
      </trkpt>
      <trkpt lat="44.90804" lon="6.79938">
        <ele>1968.44</ele>
        <time>2012-01-12T10:36:53Z</time>
      </trkpt>
      <trkpt lat="44.90787" lon="6.79932">
        <ele>1968.44</ele>
        <time>2012-01-12T10:37:07Z</time>
      </trkpt>
      <trkpt lat="44.90775" lon="6.79925">
        <ele>1968.92</ele>
        <time>2012-01-12T10:37:24Z</time>
      </trkpt>
      <trkpt lat="44.9076" lon="6.79919">
        <ele>1969.88</ele>
        <time>2012-01-12T10:37:38Z</time>
      </trkpt>
      <trkpt lat="44.90745" lon="6.79915">
        <ele>1970.36</ele>
        <time>2012-01-12T10:37:52Z</time>
      </trkpt>
      <trkpt lat="44.90732" lon="6.7992">
        <ele>1970.84</ele>
        <time>2012-01-12T10:38:04Z</time>
      </trkpt>
      <trkpt lat="44.90728" lon="6.79923">
        <ele>1971.32</ele>
        <time>2012-01-12T10:38:08Z</time>
      </trkpt>
      <trkpt lat="44.90714" lon="6.79931">
        <ele>1972.76</ele>
        <time>2012-01-12T10:38:24Z</time>
      </trkpt>
      <trkpt lat="44.90706" lon="6.79933">
        <ele>1973.72</ele>
        <time>2012-01-12T10:38:34Z</time>
      </trkpt>
      <trkpt lat="44.90696" lon="6.79928">
        <ele>1975.17</ele>
        <time>2012-01-12T10:38:48Z</time>
      </trkpt>
      <trkpt lat="44.90688" lon="6.79916">
        <ele>1976.13</ele>
        <time>2012-01-12T10:39:02Z</time>
      </trkpt>
      <trkpt lat="44.90683" lon="6.79911">
        <ele>1977.57</ele>
        <time>2012-01-12T10:39:08Z</time>
      </trkpt>
      <trkpt lat="44.90669" lon="6.79903">
        <ele>1978.05</ele>
        <time>2012-01-12T10:39:24Z</time>
      </trkpt>
      <trkpt lat="44.90656" lon="6.79903">
        <ele>1979.49</ele>
        <time>2012-01-12T10:39:40Z</time>
      </trkpt>
      <trkpt lat="44.90646" lon="6.79906">
        <ele>1981.41</ele>
        <time>2012-01-12T10:39:54Z</time>
      </trkpt>
      <trkpt lat="44.90637" lon="6.79912">
        <ele>1983.34</ele>
        <time>2012-01-12T10:40:08Z</time>
      </trkpt>
      <trkpt lat="44.90627" lon="6.79917">
        <ele>1984.3</ele>
        <time>2012-01-12T10:40:21Z</time>
      </trkpt>
      <trkpt lat="44.9062" lon="6.79912">
        <ele>1986.22</ele>
        <time>2012-01-12T10:40:36Z</time>
      </trkpt>
      <trkpt lat="44.90617" lon="6.79909">
        <ele>1987.18</ele>
        <time>2012-01-12T10:40:51Z</time>
      </trkpt>
      <trkpt lat="44.90606" lon="6.79899">
        <ele>1988.62</ele>
        <time>2012-01-12T10:41:05Z</time>
      </trkpt>
      <trkpt lat="44.906" lon="6.79884">
        <ele>1990.07</ele>
        <time>2012-01-12T10:41:19Z</time>
      </trkpt>
      <trkpt lat="44.90593" lon="6.79868">
        <ele>1991.51</ele>
        <time>2012-01-12T10:41:33Z</time>
      </trkpt>
      <trkpt lat="44.90584" lon="6.79855">
        <ele>1992.95</ele>
        <time>2012-01-12T10:41:47Z</time>
      </trkpt>
      <trkpt lat="44.90574" lon="6.79845">
        <ele>1993.91</ele>
        <time>2012-01-12T10:42:01Z</time>
      </trkpt>
      <trkpt lat="44.90566" lon="6.79836">
        <ele>1994.87</ele>
        <time>2012-01-12T10:42:14Z</time>
      </trkpt>
      <trkpt lat="44.90557" lon="6.79822">
        <ele>1996.32</ele>
        <time>2012-01-12T10:42:30Z</time>
      </trkpt>
      <trkpt lat="44.90549" lon="6.79805">
        <ele>1997.28</ele>
        <time>2012-01-12T10:42:44Z</time>
      </trkpt>
      <trkpt lat="44.90538" lon="6.79784">
        <ele>1998.24</ele>
        <time>2012-01-12T10:42:59Z</time>
      </trkpt>
      <trkpt lat="44.90528" lon="6.79769">
        <ele>1998.24</ele>
        <time>2012-01-12T10:43:13Z</time>
      </trkpt>
      <trkpt lat="44.90516" lon="6.79759">
        <ele>1999.2</ele>
        <time>2012-01-12T10:43:28Z</time>
      </trkpt>
      <trkpt lat="44.90506" lon="6.79756">
        <ele>2000.64</ele>
        <time>2012-01-12T10:43:43Z</time>
      </trkpt>
      <trkpt lat="44.90491" lon="6.79757">
        <ele>2002.56</ele>
        <time>2012-01-12T10:43:58Z</time>
      </trkpt>
      <trkpt lat="44.90478" lon="6.79755">
        <ele>2004.01</ele>
        <time>2012-01-12T10:44:11Z</time>
      </trkpt>
      <trkpt lat="44.90458" lon="6.79747">
        <ele>2004.49</ele>
        <time>2012-01-12T10:44:28Z</time>
      </trkpt>
      <trkpt lat="44.9045" lon="6.79744">
        <ele>2004.49</ele>
        <time>2012-01-12T10:44:35Z</time>
      </trkpt>
      <trkpt lat="44.90432" lon="6.79736">
        <ele>2005.45</ele>
        <time>2012-01-12T10:44:51Z</time>
      </trkpt>
      <trkpt lat="44.90418" lon="6.79727">
        <ele>2005.93</ele>
        <time>2012-01-12T10:45:04Z</time>
      </trkpt>
      <trkpt lat="44.90403" lon="6.7971">
        <ele>2006.41</ele>
        <time>2012-01-12T10:45:21Z</time>
      </trkpt>
      <trkpt lat="44.90392" lon="6.79692">
        <ele>2006.41</ele>
        <time>2012-01-12T10:45:36Z</time>
      </trkpt>
      <trkpt lat="44.90383" lon="6.79682">
        <ele>2007.37</ele>
        <time>2012-01-12T10:45:47Z</time>
      </trkpt>
      <trkpt lat="44.90374" lon="6.79675">
        <ele>2007.85</ele>
        <time>2012-01-12T10:46:01Z</time>
      </trkpt>
      <trkpt lat="44.90362" lon="6.7967">
        <ele>2008.33</ele>
        <time>2012-01-12T10:46:15Z</time>
      </trkpt>
      <trkpt lat="44.90346" lon="6.7967">
        <ele>2008.81</ele>
        <time>2012-01-12T10:46:31Z</time>
      </trkpt>
      <trkpt lat="44.90334" lon="6.79667">
        <ele>2009.29</ele>
        <time>2012-01-12T10:46:45Z</time>
      </trkpt>
      <trkpt lat="44.90322" lon="6.79661">
        <ele>2009.77</ele>
        <time>2012-01-12T10:46:59Z</time>
      </trkpt>
      <trkpt lat="44.90321" lon="6.7966">
        <ele>2009.77</ele>
        <time>2012-01-12T10:47:00Z</time>
      </trkpt>
      <trkpt lat="44.90305" lon="6.79651">
        <ele>2010.25</ele>
        <time>2012-01-12T10:47:16Z</time>
      </trkpt>
      <trkpt lat="44.90292" lon="6.79645">
        <ele>2011.7</ele>
        <time>2012-01-12T10:47:29Z</time>
      </trkpt>
      <trkpt lat="44.90276" lon="6.79639">
        <ele>2012.18</ele>
        <time>2012-01-12T10:47:45Z</time>
      </trkpt>
      <trkpt lat="44.90263" lon="6.79629">
        <ele>2012.66</ele>
        <time>2012-01-12T10:47:57Z</time>
      </trkpt>
      <trkpt lat="44.90259" lon="6.79627">
        <ele>2013.14</ele>
        <time>2012-01-12T10:48:10Z</time>
      </trkpt>
      <trkpt lat="44.90259" lon="6.79627">
        <ele>2013.62</ele>
        <time>2012-01-12T10:48:20Z</time>
      </trkpt>
      <trkpt lat="44.90248" lon="6.79635">
        <ele>2013.62</ele>
        <time>2012-01-12T10:48:30Z</time>
      </trkpt>
      <trkpt lat="44.90239" lon="6.79647">
        <ele>2014.58</ele>
        <time>2012-01-12T10:48:44Z</time>
      </trkpt>
      <trkpt lat="44.90229" lon="6.7966">
        <ele>2015.54</ele>
        <time>2012-01-12T10:48:59Z</time>
      </trkpt>
      <trkpt lat="44.9022" lon="6.7967">
        <ele>2017.46</ele>
        <time>2012-01-12T10:49:15Z</time>
      </trkpt>
      <trkpt lat="44.90213" lon="6.79678">
        <ele>2019.39</ele>
        <time>2012-01-12T10:49:30Z</time>
      </trkpt>
      <trkpt lat="44.90209" lon="6.79681">
        <ele>2020.83</ele>
        <time>2012-01-12T10:49:44Z</time>
      </trkpt>
      <trkpt lat="44.90209" lon="6.79681">
        <ele>2021.79</ele>
        <time>2012-01-12T10:50:04Z</time>
      </trkpt>
      <trkpt lat="44.90202" lon="6.79686">
        <ele>2022.75</ele>
        <time>2012-01-12T10:50:19Z</time>
      </trkpt>
      <trkpt lat="44.90191" lon="6.79695">
        <ele>2025.15</ele>
        <time>2012-01-12T10:50:37Z</time>
      </trkpt>
      <trkpt lat="44.9018" lon="6.79702">
        <ele>2027.08</ele>
        <time>2012-01-12T10:50:52Z</time>
      </trkpt>
      <trkpt lat="44.90174" lon="6.79703">
        <ele>2028.52</ele>
        <time>2012-01-12T10:51:05Z</time>
      </trkpt>
      <trkpt lat="44.90166" lon="6.79704">
        <ele>2030.92</ele>
        <time>2012-01-12T10:51:20Z</time>
      </trkpt>
      <trkpt lat="44.90159" lon="6.79706">
        <ele>2032.84</ele>
        <time>2012-01-12T10:51:36Z</time>
      </trkpt>
      <trkpt lat="44.90157" lon="6.79708">
        <ele>2034.77</ele>
        <time>2012-01-12T10:51:51Z</time>
      </trkpt>
      <trkpt lat="44.90145" lon="6.79714">
        <ele>2036.21</ele>
        <time>2012-01-12T10:52:09Z</time>
      </trkpt>
      <trkpt lat="44.90138" lon="6.79714">
        <ele>2036.69</ele>
        <time>2012-01-12T10:52:20Z</time>
      </trkpt>
      <trkpt lat="44.90137" lon="6.79714">
        <ele>2037.65</ele>
        <time>2012-01-12T10:52:32Z</time>
      </trkpt>
      <trkpt lat="44.90135" lon="6.79714">
        <ele>2037.65</ele>
        <time>2012-01-12T10:52:34Z</time>
      </trkpt>
      <trkpt lat="44.90122" lon="6.79718">
        <ele>2039.09</ele>
        <time>2012-01-12T10:52:51Z</time>
      </trkpt>
      <trkpt lat="44.90118" lon="6.7972">
        <ele>2040.05</ele>
        <time>2012-01-12T10:53:06Z</time>
      </trkpt>
      <trkpt lat="44.90118" lon="6.7972">
        <ele>2040.54</ele>
        <time>2012-01-12T10:53:22Z</time>
      </trkpt>
      <trkpt lat="44.90118" lon="6.7972">
        <ele>2041.02</ele>
        <time>2012-01-12T10:53:40Z</time>
      </trkpt>
      <trkpt lat="44.90118" lon="6.79722">
        <ele>2041.02</ele>
        <time>2012-01-12T10:53:42Z</time>
      </trkpt>
      <trkpt lat="44.90121" lon="6.79735">
        <ele>2041.02</ele>
        <time>2012-01-12T10:53:55Z</time>
      </trkpt>
      <trkpt lat="44.90123" lon="6.79744">
        <ele>2041.98</ele>
        <time>2012-01-12T10:54:09Z</time>
      </trkpt>
      <trkpt lat="44.90125" lon="6.79753">
        <ele>2042.46</ele>
        <time>2012-01-12T10:54:23Z</time>
      </trkpt>
      <trkpt lat="44.90122" lon="6.7977">
        <ele>2043.9</ele>
        <time>2012-01-12T10:54:39Z</time>
      </trkpt>
      <trkpt lat="44.90114" lon="6.79783">
        <ele>2045.34</ele>
        <time>2012-01-12T10:54:55Z</time>
      </trkpt>
      <trkpt lat="44.90106" lon="6.79789">
        <ele>2046.78</ele>
        <time>2012-01-12T10:55:11Z</time>
      </trkpt>
      <trkpt lat="44.90098" lon="6.79799">
        <ele>2048.71</ele>
        <time>2012-01-12T10:55:26Z</time>
      </trkpt>
      <trkpt lat="44.90088" lon="6.7981">
        <ele>2051.11</ele>
        <time>2012-01-12T10:55:46Z</time>
      </trkpt>
      <trkpt lat="44.90077" lon="6.79815">
        <ele>2053.03</ele>
        <time>2012-01-12T10:56:00Z</time>
      </trkpt>
      <trkpt lat="44.90069" lon="6.79825">
        <ele>2054.47</ele>
        <time>2012-01-12T10:56:15Z</time>
      </trkpt>
      <trkpt lat="44.90067" lon="6.79839">
        <ele>2055.44</ele>
        <time>2012-01-12T10:56:28Z</time>
      </trkpt>
      <trkpt lat="44.90065" lon="6.7986">
        <ele>2056.4</ele>
        <time>2012-01-12T10:56:45Z</time>
      </trkpt>
      <trkpt lat="44.90061" lon="6.7987">
        <ele>2057.84</ele>
        <time>2012-01-12T10:56:59Z</time>
      </trkpt>
      <trkpt lat="44.9006" lon="6.79881">
        <ele>2058.8</ele>
        <time>2012-01-12T10:57:11Z</time>
      </trkpt>
      <trkpt lat="44.90062" lon="6.7989">
        <ele>2060.24</ele>
        <time>2012-01-12T10:57:23Z</time>
      </trkpt>
      <trkpt lat="44.90065" lon="6.799">
        <ele>2061.2</ele>
        <time>2012-01-12T10:57:35Z</time>
      </trkpt>
      <trkpt lat="44.9006" lon="6.7991">
        <ele>2062.65</ele>
        <time>2012-01-12T10:57:48Z</time>
      </trkpt>
      <trkpt lat="44.90054" lon="6.79918">
        <ele>2063.61</ele>
        <time>2012-01-12T10:58:00Z</time>
      </trkpt>
      <trkpt lat="44.90053" lon="6.79928">
        <ele>2064.57</ele>
        <time>2012-01-12T10:58:13Z</time>
      </trkpt>
      <trkpt lat="44.90054" lon="6.79938">
        <ele>2066.97</ele>
        <time>2012-01-12T10:58:25Z</time>
      </trkpt>
      <trkpt lat="44.9005" lon="6.79949">
        <ele>2069.38</ele>
        <time>2012-01-12T10:58:43Z</time>
      </trkpt>
      <trkpt lat="44.90041" lon="6.79953">
        <ele>2070.82</ele>
        <time>2012-01-12T10:58:56Z</time>
      </trkpt>
      <trkpt lat="44.90041" lon="6.79953">
        <ele>2072.26</ele>
        <time>2012-01-12T10:59:14Z</time>
      </trkpt>
      <trkpt lat="44.90041" lon="6.79953">
        <ele>2073.22</ele>
        <time>2012-01-12T10:59:28Z</time>
      </trkpt>
      <trkpt lat="44.90031" lon="6.79959">
        <ele>2074.66</ele>
        <time>2012-01-12T10:59:42Z</time>
      </trkpt>
      <trkpt lat="44.9002" lon="6.79968">
        <ele>2076.1</ele>
        <time>2012-01-12T10:59:55Z</time>
      </trkpt>
      <trkpt lat="44.90011" lon="6.79972">
        <ele>2078.03</ele>
        <time>2012-01-12T11:00:07Z</time>
      </trkpt>
      <trkpt lat="44.90007" lon="6.79975">
        <ele>2079.47</ele>
        <time>2012-01-12T11:00:19Z</time>
      </trkpt>
      <trkpt lat="44.90008" lon="6.79978">
        <ele>2081.87</ele>
        <time>2012-01-12T11:00:35Z</time>
      </trkpt>
      <trkpt lat="44.9001" lon="6.79984">
        <ele>2082.35</ele>
        <time>2012-01-12T11:00:47Z</time>
      </trkpt>
      <trkpt lat="44.90013" lon="6.79989">
        <ele>2083.79</ele>
        <time>2012-01-12T11:01:01Z</time>
      </trkpt>
      <trkpt lat="44.90013" lon="6.80002">
        <ele>2085.72</ele>
        <time>2012-01-12T11:01:16Z</time>
      </trkpt>
      <trkpt lat="44.90013" lon="6.80013">
        <ele>2087.64</ele>
        <time>2012-01-12T11:01:30Z</time>
      </trkpt>
      <trkpt lat="44.90012" lon="6.80023">
        <ele>2090.52</ele>
        <time>2012-01-12T11:01:49Z</time>
      </trkpt>
      <trkpt lat="44.90009" lon="6.80036">
        <ele>2091.49</ele>
        <time>2012-01-12T11:02:05Z</time>
      </trkpt>
      <trkpt lat="44.90003" lon="6.80056">
        <ele>2092.93</ele>
        <time>2012-01-12T11:02:21Z</time>
      </trkpt>
      <trkpt lat="44.89996" lon="6.8007">
        <ele>2093.89</ele>
        <time>2012-01-12T11:02:36Z</time>
      </trkpt>
      <trkpt lat="44.89991" lon="6.80082">
        <ele>2095.81</ele>
        <time>2012-01-12T11:02:50Z</time>
      </trkpt>
      <trkpt lat="44.8999" lon="6.80091">
        <ele>2097.25</ele>
        <time>2012-01-12T11:03:04Z</time>
      </trkpt>
      <trkpt lat="44.8999" lon="6.80095">
        <ele>2099.18</ele>
        <time>2012-01-12T11:03:19Z</time>
      </trkpt>
      <trkpt lat="44.89991" lon="6.80095">
        <ele>2100.14</ele>
        <time>2012-01-12T11:03:38Z</time>
      </trkpt>
      <trkpt lat="44.89994" lon="6.80101">
        <ele>2100.14</ele>
        <time>2012-01-12T11:03:59Z</time>
      </trkpt>
      <trkpt lat="44.89997" lon="6.80107">
        <ele>2101.1</ele>
        <time>2012-01-12T11:04:05Z</time>
      </trkpt>
      <trkpt lat="44.89999" lon="6.80122">
        <ele>2102.54</ele>
        <time>2012-01-12T11:04:20Z</time>
      </trkpt>
      <trkpt lat="44.89999" lon="6.80135">
        <ele>2103.98</ele>
        <time>2012-01-12T11:04:32Z</time>
      </trkpt>
      <trkpt lat="44.9" lon="6.80147">
        <ele>2105.91</ele>
        <time>2012-01-12T11:04:47Z</time>
      </trkpt>
      <trkpt lat="44.90001" lon="6.8016">
        <ele>2107.35</ele>
        <time>2012-01-12T11:05:02Z</time>
      </trkpt>
      <trkpt lat="44.90001" lon="6.80176">
        <ele>2108.31</ele>
        <time>2012-01-12T11:05:16Z</time>
      </trkpt>
      <trkpt lat="44.89998" lon="6.80189">
        <ele>2109.75</ele>
        <time>2012-01-12T11:05:29Z</time>
      </trkpt>
      <trkpt lat="44.89996" lon="6.80201">
        <ele>2111.67</ele>
        <time>2012-01-12T11:05:42Z</time>
      </trkpt>
      <trkpt lat="44.89992" lon="6.80216">
        <ele>2113.12</ele>
        <time>2012-01-12T11:05:58Z</time>
      </trkpt>
      <trkpt lat="44.89988" lon="6.8023">
        <ele>2114.56</ele>
        <time>2012-01-12T11:06:13Z</time>
      </trkpt>
      <trkpt lat="44.89984" lon="6.80245">
        <ele>2115.52</ele>
        <time>2012-01-12T11:06:27Z</time>
      </trkpt>
      <trkpt lat="44.89979" lon="6.80261">
        <ele>2116.48</ele>
        <time>2012-01-12T11:06:41Z</time>
      </trkpt>
      <trkpt lat="44.89975" lon="6.80275">
        <ele>2117.44</ele>
        <time>2012-01-12T11:06:56Z</time>
      </trkpt>
      <trkpt lat="44.89974" lon="6.80285">
        <ele>2118.4</ele>
        <time>2012-01-12T11:07:08Z</time>
      </trkpt>
      <trkpt lat="44.89975" lon="6.80296">
        <ele>2119.36</ele>
        <time>2012-01-12T11:07:19Z</time>
      </trkpt>
      <trkpt lat="44.89973" lon="6.80311">
        <ele>2121.29</ele>
        <time>2012-01-12T11:07:34Z</time>
      </trkpt>
      <trkpt lat="44.89973" lon="6.80323">
        <ele>2122.25</ele>
        <time>2012-01-12T11:07:48Z</time>
      </trkpt>
      <trkpt lat="44.89971" lon="6.80335">
        <ele>2123.69</ele>
        <time>2012-01-12T11:08:01Z</time>
      </trkpt>
      <trkpt lat="44.89973" lon="6.80343">
        <ele>2125.61</ele>
        <time>2012-01-12T11:08:15Z</time>
      </trkpt>
      <trkpt lat="44.89978" lon="6.80347">
        <ele>2127.05</ele>
        <time>2012-01-12T11:08:27Z</time>
      </trkpt>
      <trkpt lat="44.8998" lon="6.80353">
        <ele>2128.98</ele>
        <time>2012-01-12T11:08:41Z</time>
      </trkpt>
      <trkpt lat="44.89977" lon="6.80367">
        <ele>2129.94</ele>
        <time>2012-01-12T11:08:57Z</time>
      </trkpt>
      <trkpt lat="44.89976" lon="6.80382">
        <ele>2131.86</ele>
        <time>2012-01-12T11:09:13Z</time>
      </trkpt>
      <trkpt lat="44.89979" lon="6.80389">
        <ele>2132.82</ele>
        <time>2012-01-12T11:09:24Z</time>
      </trkpt>
      <trkpt lat="44.8998" lon="6.804">
        <ele>2135.23</ele>
        <time>2012-01-12T11:09:40Z</time>
      </trkpt>
      <trkpt lat="44.89978" lon="6.80413">
        <ele>2137.15</ele>
        <time>2012-01-12T11:09:53Z</time>
      </trkpt>
      <trkpt lat="44.89978" lon="6.80419">
        <ele>2139.07</ele>
        <time>2012-01-12T11:10:07Z</time>
      </trkpt>
      <trkpt lat="44.89978" lon="6.8042">
        <ele>2140.51</ele>
        <time>2012-01-12T11:10:22Z</time>
      </trkpt>
      <trkpt lat="44.89978" lon="6.8042">
        <ele>2140.99</ele>
        <time>2012-01-12T11:10:48Z</time>
      </trkpt>
      <trkpt lat="44.8998" lon="6.8043">
        <ele>2141.95</ele>
        <time>2012-01-12T11:11:04Z</time>
      </trkpt>
      <trkpt lat="44.8998" lon="6.80434">
        <ele>2143.4</ele>
        <time>2012-01-12T11:11:18Z</time>
      </trkpt>
      <trkpt lat="44.89981" lon="6.8044">
        <ele>2144.84</ele>
        <time>2012-01-12T11:11:31Z</time>
      </trkpt>
      <trkpt lat="44.89982" lon="6.80454">
        <ele>2146.76</ele>
        <time>2012-01-12T11:11:47Z</time>
      </trkpt>
      <trkpt lat="44.89977" lon="6.80465">
        <ele>2149.16</ele>
        <time>2012-01-12T11:12:02Z</time>
      </trkpt>
      <trkpt lat="44.89973" lon="6.80471">
        <ele>2150.61</ele>
        <time>2012-01-12T11:12:15Z</time>
      </trkpt>
      <trkpt lat="44.89972" lon="6.80483">
        <ele>2152.53</ele>
        <time>2012-01-12T11:12:28Z</time>
      </trkpt>
      <trkpt lat="44.8997" lon="6.80494">
        <ele>2154.45</ele>
        <time>2012-01-12T11:12:42Z</time>
      </trkpt>
      <trkpt lat="44.89967" lon="6.80503">
        <ele>2156.37</ele>
        <time>2012-01-12T11:12:54Z</time>
      </trkpt>
      <trkpt lat="44.89967" lon="6.80506">
        <ele>2157.34</ele>
        <time>2012-01-12T11:13:08Z</time>
      </trkpt>
      <trkpt lat="44.89967" lon="6.80506">
        <ele>2157.82</ele>
        <time>2012-01-12T11:13:24Z</time>
      </trkpt>
      <trkpt lat="44.89966" lon="6.80506">
        <ele>2157.82</ele>
        <time>2012-01-12T11:13:56Z</time>
      </trkpt>
      <trkpt lat="44.89967" lon="6.80507">
        <ele>2158.3</ele>
        <time>2012-01-12T11:14:08Z</time>
      </trkpt>
      <trkpt lat="44.89967" lon="6.80509">
        <ele>2158.78</ele>
        <time>2012-01-12T11:14:37Z</time>
      </trkpt>
      <trkpt lat="44.89968" lon="6.80521">
        <ele>2160.22</ele>
        <time>2012-01-12T11:14:51Z</time>
      </trkpt>
      <trkpt lat="44.89971" lon="6.80531">
        <ele>2162.62</ele>
        <time>2012-01-12T11:15:05Z</time>
      </trkpt>
      <trkpt lat="44.8997" lon="6.80536">
        <ele>2164.06</ele>
        <time>2012-01-12T11:15:21Z</time>
      </trkpt>
      <trkpt lat="44.8997" lon="6.80538">
        <ele>2165.99</ele>
        <time>2012-01-12T11:15:33Z</time>
      </trkpt>
      <trkpt lat="44.8997" lon="6.80539">
        <ele>2167.91</ele>
        <time>2012-01-12T11:15:47Z</time>
      </trkpt>
      <trkpt lat="44.89967" lon="6.80542">
        <ele>2170.31</ele>
        <time>2012-01-12T11:16:02Z</time>
      </trkpt>
      <trkpt lat="44.89965" lon="6.80549">
        <ele>2171.76</ele>
        <time>2012-01-12T11:16:17Z</time>
      </trkpt>
      <trkpt lat="44.89962" lon="6.80567">
        <ele>2173.2</ele>
        <time>2012-01-12T11:16:30Z</time>
      </trkpt>
      <trkpt lat="44.89958" lon="6.80576">
        <ele>2174.64</ele>
        <time>2012-01-12T11:16:43Z</time>
      </trkpt>
      <trkpt lat="44.89958" lon="6.80589">
        <ele>2177.04</ele>
        <time>2012-01-12T11:16:58Z</time>
      </trkpt>
      <trkpt lat="44.89958" lon="6.8059">
        <ele>2178.48</ele>
        <time>2012-01-12T11:17:11Z</time>
      </trkpt>
      <trkpt lat="44.89959" lon="6.80595">
        <ele>2180.89</ele>
        <time>2012-01-12T11:17:25Z</time>
      </trkpt>
      <trkpt lat="44.89959" lon="6.80595">
        <ele>2182.33</ele>
        <time>2012-01-12T11:17:38Z</time>
      </trkpt>
      <trkpt lat="44.89959" lon="6.80595">
        <ele>2184.25</ele>
        <time>2012-01-12T11:17:53Z</time>
      </trkpt>
      <trkpt lat="44.89958" lon="6.80596">
        <ele>2186.66</ele>
        <time>2012-01-12T11:18:07Z</time>
      </trkpt>
      <trkpt lat="44.89958" lon="6.80599">
        <ele>2187.62</ele>
        <time>2012-01-12T11:18:22Z</time>
      </trkpt>
      <trkpt lat="44.89956" lon="6.80601">
        <ele>2189.54</ele>
        <time>2012-01-12T11:18:38Z</time>
      </trkpt>
      <trkpt lat="44.89951" lon="6.8063">
        <ele>2190.98</ele>
        <time>2012-01-12T11:18:53Z</time>
      </trkpt>
      <trkpt lat="44.8994" lon="6.80656">
        <ele>2192.42</ele>
        <time>2012-01-12T11:19:08Z</time>
      </trkpt>
      <trkpt lat="44.89932" lon="6.8067">
        <ele>2193.39</ele>
        <time>2012-01-12T11:19:21Z</time>
      </trkpt>
      <trkpt lat="44.89926" lon="6.8068">
        <ele>2194.35</ele>
        <time>2012-01-12T11:19:33Z</time>
      </trkpt>
      <trkpt lat="44.89926" lon="6.80682">
        <ele>2194.35</ele>
        <time>2012-01-12T11:19:34Z</time>
      </trkpt>
      <trkpt lat="44.89924" lon="6.80696">
        <ele>2195.31</ele>
        <time>2012-01-12T11:19:46Z</time>
      </trkpt>
      <trkpt lat="44.8992" lon="6.80717">
        <ele>2196.75</ele>
        <time>2012-01-12T11:20:00Z</time>
      </trkpt>
      <trkpt lat="44.89912" lon="6.80727">
        <ele>2198.19</ele>
        <time>2012-01-12T11:20:14Z</time>
      </trkpt>
      <trkpt lat="44.89904" lon="6.80736">
        <ele>2199.15</ele>
        <time>2012-01-12T11:20:26Z</time>
      </trkpt>
      <trkpt lat="44.89901" lon="6.80739">
        <ele>2200.59</ele>
        <time>2012-01-12T11:20:41Z</time>
      </trkpt>
      <trkpt lat="44.89901" lon="6.80739">
        <ele>2201.56</ele>
        <time>2012-01-12T11:20:53Z</time>
      </trkpt>
      <trkpt lat="44.89894" lon="6.80748">
        <ele>2201.56</ele>
        <time>2012-01-12T11:21:07Z</time>
      </trkpt>
      <trkpt lat="44.89893" lon="6.80748">
        <ele>2201.56</ele>
        <time>2012-01-12T11:21:08Z</time>
      </trkpt>
      <trkpt lat="44.89879" lon="6.80753">
        <ele>2201.56</ele>
        <time>2012-01-12T11:21:23Z</time>
      </trkpt>
      <trkpt lat="44.89874" lon="6.80757">
        <ele>2201.56</ele>
        <time>2012-01-12T11:21:35Z</time>
      </trkpt>
      <trkpt lat="44.89865" lon="6.80762">
        <ele>2203.48</ele>
        <time>2012-01-12T11:21:50Z</time>
      </trkpt>
      <trkpt lat="44.89865" lon="6.80762">
        <ele>2204.44</ele>
        <time>2012-01-12T11:22:08Z</time>
      </trkpt>
      <trkpt lat="44.89865" lon="6.80762">
        <ele>2204.44</ele>
        <time>2012-01-12T11:22:24Z</time>
      </trkpt>
      <trkpt lat="44.89865" lon="6.80763">
        <ele>2205.4</ele>
        <time>2012-01-12T11:22:39Z</time>
      </trkpt>
      <trkpt lat="44.89865" lon="6.80763">
        <ele>2206.84</ele>
        <time>2012-01-12T11:22:53Z</time>
      </trkpt>
      <trkpt lat="44.89865" lon="6.80763">
        <ele>2208.77</ele>
        <time>2012-01-12T11:23:06Z</time>
      </trkpt>
      <trkpt lat="44.89865" lon="6.80763">
        <ele>2209.73</ele>
        <time>2012-01-12T11:23:26Z</time>
      </trkpt>
      <trkpt lat="44.89853" lon="6.8077">
        <ele>2210.69</ele>
        <time>2012-01-12T11:23:39Z</time>
      </trkpt>
      <trkpt lat="44.89848" lon="6.80786">
        <ele>2212.13</ele>
        <time>2012-01-12T11:23:52Z</time>
      </trkpt>
      <trkpt lat="44.89848" lon="6.80786">
        <ele>2215.01</ele>
        <time>2012-01-12T11:24:09Z</time>
      </trkpt>
      <trkpt lat="44.89848" lon="6.80786">
        <ele>2215.98</ele>
        <time>2012-01-12T11:24:24Z</time>
      </trkpt>
      <trkpt lat="44.89848" lon="6.80789">
        <ele>2218.38</ele>
        <time>2012-01-12T11:24:37Z</time>
      </trkpt>
      <trkpt lat="44.89843" lon="6.80803">
        <ele>2219.82</ele>
        <time>2012-01-12T11:24:51Z</time>
      </trkpt>
      <trkpt lat="44.89834" lon="6.80835">
        <ele>2220.78</ele>
        <time>2012-01-12T11:25:07Z</time>
      </trkpt>
      <trkpt lat="44.89831" lon="6.80843">
        <ele>2221.74</ele>
        <time>2012-01-12T11:25:19Z</time>
      </trkpt>
      <trkpt lat="44.89823" lon="6.80858">
        <ele>2223.67</ele>
        <time>2012-01-12T11:25:35Z</time>
      </trkpt>
      <trkpt lat="44.89823" lon="6.80858">
        <ele>2226.07</ele>
        <time>2012-01-12T11:25:49Z</time>
      </trkpt>
      <trkpt lat="44.89823" lon="6.8086">
        <ele>2227.51</ele>
        <time>2012-01-12T11:26:03Z</time>
      </trkpt>
      <trkpt lat="44.89813" lon="6.8088">
        <ele>2229.43</ele>
        <time>2012-01-12T11:26:15Z</time>
      </trkpt>
      <trkpt lat="44.89807" lon="6.80895">
        <ele>2230.88</ele>
        <time>2012-01-12T11:26:31Z</time>
      </trkpt>
      <trkpt lat="44.89806" lon="6.80905">
        <ele>2232.32</ele>
        <time>2012-01-12T11:26:43Z</time>
      </trkpt>
      <trkpt lat="44.89806" lon="6.80906">
        <ele>2234.24</ele>
        <time>2012-01-12T11:27:03Z</time>
      </trkpt>
      <trkpt lat="44.89806" lon="6.80906">
        <ele>2236.16</ele>
        <time>2012-01-12T11:27:18Z</time>
      </trkpt>
      <trkpt lat="44.89806" lon="6.80907">
        <ele>2237.61</ele>
        <time>2012-01-12T11:27:32Z</time>
      </trkpt>
      <trkpt lat="44.89805" lon="6.80909">
        <ele>2238.57</ele>
        <time>2012-01-12T11:27:39Z</time>
      </trkpt>
      <trkpt lat="44.89796" lon="6.80938">
        <ele>2240.97</ele>
        <time>2012-01-12T11:27:56Z</time>
      </trkpt>
      <trkpt lat="44.8979" lon="6.80952">
        <ele>2241.93</ele>
        <time>2012-01-12T11:28:11Z</time>
      </trkpt>
      <trkpt lat="44.89786" lon="6.80959">
        <ele>2243.85</ele>
        <time>2012-01-12T11:28:24Z</time>
      </trkpt>
      <trkpt lat="44.89778" lon="6.80973">
        <ele>2245.78</ele>
        <time>2012-01-12T11:28:38Z</time>
      </trkpt>
      <trkpt lat="44.8977" lon="6.8098">
        <ele>2246.74</ele>
        <time>2012-01-12T11:28:48Z</time>
      </trkpt>
      <trkpt lat="44.89761" lon="6.80985">
        <ele>2246.74</ele>
        <time>2012-01-12T11:28:58Z</time>
      </trkpt>
      <trkpt lat="44.89761" lon="6.80986">
        <ele>2248.18</ele>
        <time>2012-01-12T11:29:13Z</time>
      </trkpt>
      <trkpt lat="44.8976" lon="6.80987">
        <ele>2249.62</ele>
        <time>2012-01-12T11:29:28Z</time>
      </trkpt>
      <trkpt lat="44.8976" lon="6.80987">
        <ele>2251.06</ele>
        <time>2012-01-12T11:29:48Z</time>
      </trkpt>
      <trkpt lat="44.89759" lon="6.80988">
        <ele>2252.03</ele>
        <time>2012-01-12T11:30:05Z</time>
      </trkpt>
      <trkpt lat="44.89759" lon="6.80988">
        <ele>2253.47</ele>
        <time>2012-01-12T11:30:18Z</time>
      </trkpt>
      <trkpt lat="44.8976" lon="6.80992">
        <ele>2255.87</ele>
        <time>2012-01-12T11:30:34Z</time>
      </trkpt>
      <trkpt lat="44.89754" lon="6.81026">
        <ele>2257.31</ele>
        <time>2012-01-12T11:30:50Z</time>
      </trkpt>
      <trkpt lat="44.89746" lon="6.8104">
        <ele>2258.75</ele>
        <time>2012-01-12T11:31:04Z</time>
      </trkpt>
      <trkpt lat="44.89738" lon="6.81053">
        <ele>2261.16</ele>
        <time>2012-01-12T11:31:21Z</time>
      </trkpt>
      <trkpt lat="44.89737" lon="6.81061">
        <ele>2262.12</ele>
        <time>2012-01-12T11:31:33Z</time>
      </trkpt>
      <trkpt lat="44.8974" lon="6.81064">
        <ele>2263.56</ele>
        <time>2012-01-12T11:31:48Z</time>
      </trkpt>
      <trkpt lat="44.89741" lon="6.81075">
        <ele>2265.48</ele>
        <time>2012-01-12T11:32:02Z</time>
      </trkpt>
      <trkpt lat="44.89739" lon="6.81085">
        <ele>2267.89</ele>
        <time>2012-01-12T11:32:16Z</time>
      </trkpt>
      <trkpt lat="44.89736" lon="6.81095">
        <ele>2269.33</ele>
        <time>2012-01-12T11:32:31Z</time>
      </trkpt>
      <trkpt lat="44.89731" lon="6.81099">
        <ele>2271.73</ele>
        <time>2012-01-12T11:32:46Z</time>
      </trkpt>
      <trkpt lat="44.89729" lon="6.811">
        <ele>2273.17</ele>
        <time>2012-01-12T11:33:02Z</time>
      </trkpt>
      <trkpt lat="44.89723" lon="6.81106">
        <ele>2275.1</ele>
        <time>2012-01-12T11:33:15Z</time>
      </trkpt>
      <trkpt lat="44.89719" lon="6.81107">
        <ele>2276.54</ele>
        <time>2012-01-12T11:33:26Z</time>
      </trkpt>
      <trkpt lat="44.89713" lon="6.81106">
        <ele>2278.46</ele>
        <time>2012-01-12T11:33:41Z</time>
      </trkpt>
      <trkpt lat="44.89708" lon="6.81106">
        <ele>2279.42</ele>
        <time>2012-01-12T11:33:53Z</time>
      </trkpt>
      <trkpt lat="44.89703" lon="6.81103">
        <ele>2280.87</ele>
        <time>2012-01-12T11:34:06Z</time>
      </trkpt>
      <trkpt lat="44.89698" lon="6.81103">
        <ele>2283.27</ele>
        <time>2012-01-12T11:34:21Z</time>
      </trkpt>
      <trkpt lat="44.89695" lon="6.81106">
        <ele>2284.71</ele>
        <time>2012-01-12T11:34:33Z</time>
      </trkpt>
      <trkpt lat="44.8969" lon="6.81118">
        <ele>2287.11</ele>
        <time>2012-01-12T11:34:48Z</time>
      </trkpt>
      <trkpt lat="44.89687" lon="6.81124">
        <ele>2289.04</ele>
        <time>2012-01-12T11:35:02Z</time>
      </trkpt>
      <trkpt lat="44.89684" lon="6.8113">
        <ele>2290.96</ele>
        <time>2012-01-12T11:35:15Z</time>
      </trkpt>
      <trkpt lat="44.89683" lon="6.81132">
        <ele>2292.4</ele>
        <time>2012-01-12T11:35:27Z</time>
      </trkpt>
      <trkpt lat="44.89684" lon="6.81137">
        <ele>2292.88</ele>
        <time>2012-01-12T11:35:42Z</time>
      </trkpt>
      <trkpt lat="44.89683" lon="6.81141">
        <ele>2293.84</ele>
        <time>2012-01-12T11:35:54Z</time>
      </trkpt>
      <trkpt lat="44.89678" lon="6.8115">
        <ele>2295.77</ele>
        <time>2012-01-12T11:36:07Z</time>
      </trkpt>
      <trkpt lat="44.89676" lon="6.81152">
        <ele>2296.73</ele>
        <time>2012-01-12T11:36:23Z</time>
      </trkpt>
      <trkpt lat="44.89676" lon="6.81152">
        <ele>2296.73</ele>
        <time>2012-01-12T11:36:36Z</time>
      </trkpt>
      <trkpt lat="44.89675" lon="6.81154">
        <ele>2297.21</ele>
        <time>2012-01-12T11:36:51Z</time>
      </trkpt>
      <trkpt lat="44.89668" lon="6.81165">
        <ele>2300.57</ele>
        <time>2012-01-12T12:11:06Z</time>
      </trkpt>
      <trkpt lat="44.89665" lon="6.81156">
        <ele>2300.57</ele>
        <time>2012-01-12T12:11:07Z</time>
      </trkpt>
      <trkpt lat="44.89672" lon="6.81151">
        <ele>2298.17</ele>
        <time>2012-01-12T12:11:15Z</time>
      </trkpt>
      <trkpt lat="44.89675" lon="6.81152">
        <ele>2299.13</ele>
        <time>2012-01-12T12:11:41Z</time>
      </trkpt>
      <trkpt lat="44.89674" lon="6.81152">
        <ele>2301.53</ele>
        <time>2012-01-12T12:12:02Z</time>
      </trkpt>
      <trkpt lat="44.89673" lon="6.81153">
        <ele>2298.17</ele>
        <time>2012-01-12T12:12:15Z</time>
      </trkpt>
      <trkpt lat="44.89672" lon="6.81155">
        <ele>2301.53</ele>
        <time>2012-01-12T12:12:28Z</time>
      </trkpt>
      <trkpt lat="44.89673" lon="6.81149">
        <ele>2298.17</ele>
        <time>2012-01-12T12:12:40Z</time>
      </trkpt>
      <trkpt lat="44.89673" lon="6.81151">
        <ele>2299.61</ele>
        <time>2012-01-12T12:13:00Z</time>
      </trkpt>
      <trkpt lat="44.89672" lon="6.81151">
        <ele>2299.61</ele>
        <time>2012-01-12T12:13:26Z</time>
      </trkpt>
      <trkpt lat="44.89672" lon="6.81151">
        <ele>2299.61</ele>
        <time>2012-01-12T12:13:54Z</time>
      </trkpt>
      <trkpt lat="44.89673" lon="6.81151">
        <ele>2299.61</ele>
        <time>2012-01-12T12:14:09Z</time>
      </trkpt>
      <trkpt lat="44.89674" lon="6.81151">
        <ele>2299.61</ele>
        <time>2012-01-12T12:14:42Z</time>
      </trkpt>
      <trkpt lat="44.89674" lon="6.8115">
        <ele>2299.61</ele>
        <time>2012-01-12T12:14:59Z</time>
      </trkpt>
      <trkpt lat="44.89674" lon="6.81152">
        <ele>2299.61</ele>
        <time>2012-01-12T12:15:09Z</time>
      </trkpt>
      <trkpt lat="44.89674" lon="6.81152">
        <ele>2299.61</ele>
        <time>2012-01-12T12:15:25Z</time>
      </trkpt>
      <trkpt lat="44.89674" lon="6.81152">
        <ele>2299.61</ele>
        <time>2012-01-12T12:15:38Z</time>
      </trkpt>
      <trkpt lat="44.89674" lon="6.81152">
        <ele>2299.61</ele>
        <time>2012-01-12T12:15:57Z</time>
      </trkpt>
      <trkpt lat="44.89674" lon="6.8115">
        <ele>2299.61</ele>
        <time>2012-01-12T12:16:09Z</time>
      </trkpt>
      <trkpt lat="44.89674" lon="6.8115">
        <ele>2299.61</ele>
        <time>2012-01-12T12:16:26Z</time>
      </trkpt>
      <trkpt lat="44.89674" lon="6.8115">
        <ele>2299.61</ele>
        <time>2012-01-12T12:16:42Z</time>
      </trkpt>
      <trkpt lat="44.89678" lon="6.81147">
        <ele>2299.61</ele>
        <time>2012-01-12T12:16:50Z</time>
      </trkpt>
      <trkpt lat="44.89687" lon="6.81135">
        <ele>2297.21</ele>
        <time>2012-01-12T12:17:01Z</time>
      </trkpt>
      <trkpt lat="44.89687" lon="6.81135">
        <ele>2296.25</ele>
        <time>2012-01-12T12:17:14Z</time>
      </trkpt>
      <trkpt lat="44.89685" lon="6.81123">
        <ele>2294.8</ele>
        <time>2012-01-12T12:17:20Z</time>
      </trkpt>
      <trkpt lat="44.89691" lon="6.8112">
        <ele>2291.44</ele>
        <time>2012-01-12T12:17:25Z</time>
      </trkpt>
      <trkpt lat="44.89692" lon="6.8112">
        <ele>2290.48</ele>
        <time>2012-01-12T12:17:26Z</time>
      </trkpt>
      <trkpt lat="44.89694" lon="6.81115">
        <ele>2287.59</ele>
        <time>2012-01-12T12:17:31Z</time>
      </trkpt>
      <trkpt lat="44.89693" lon="6.81112">
        <ele>2288.56</ele>
        <time>2012-01-12T12:17:43Z</time>
      </trkpt>
      <trkpt lat="44.89704" lon="6.81112">
        <ele>2288.56</ele>
        <time>2012-01-12T12:17:51Z</time>
      </trkpt>
      <trkpt lat="44.89704" lon="6.81113">
        <ele>2287.11</ele>
        <time>2012-01-12T12:17:56Z</time>
      </trkpt>
      <trkpt lat="44.89704" lon="6.81113">
        <ele>2287.11</ele>
        <time>2012-01-12T12:18:01Z</time>
      </trkpt>
      <trkpt lat="44.89709" lon="6.81103">
        <ele>2283.75</ele>
        <time>2012-01-12T12:18:07Z</time>
      </trkpt>
      <trkpt lat="44.89714" lon="6.81104">
        <ele>2280.87</ele>
        <time>2012-01-12T12:18:10Z</time>
      </trkpt>
      <trkpt lat="44.89714" lon="6.81104">
        <ele>2282.31</ele>
        <time>2012-01-12T12:18:23Z</time>
      </trkpt>
      <trkpt lat="44.89726" lon="6.81108">
        <ele>2279.42</ele>
        <time>2012-01-12T12:18:32Z</time>
      </trkpt>
      <trkpt lat="44.89736" lon="6.81109">
        <ele>2275.58</ele>
        <time>2012-01-12T12:18:36Z</time>
      </trkpt>
      <trkpt lat="44.89738" lon="6.81107">
        <ele>2274.62</ele>
        <time>2012-01-12T12:18:48Z</time>
      </trkpt>
      <trkpt lat="44.89738" lon="6.81107">
        <ele>2275.58</ele>
        <time>2012-01-12T12:18:49Z</time>
      </trkpt>
      <trkpt lat="44.8974" lon="6.81095">
        <ele>2275.58</ele>
        <time>2012-01-12T12:18:55Z</time>
      </trkpt>
      <trkpt lat="44.8974" lon="6.81095">
        <ele>2274.14</ele>
        <time>2012-01-12T12:19:00Z</time>
      </trkpt>
      <trkpt lat="44.89739" lon="6.81096">
        <ele>2273.66</ele>
        <time>2012-01-12T12:19:15Z</time>
      </trkpt>
      <trkpt lat="44.8974" lon="6.81097">
        <ele>2273.66</ele>
        <time>2012-01-12T12:19:34Z</time>
      </trkpt>
      <trkpt lat="44.89738" lon="6.81092">
        <ele>2273.66</ele>
        <time>2012-01-12T12:19:51Z</time>
      </trkpt>
      <trkpt lat="44.89738" lon="6.81092">
        <ele>2273.66</ele>
        <time>2012-01-12T12:19:57Z</time>
      </trkpt>
      <trkpt lat="44.89746" lon="6.8107">
        <ele>2272.21</ele>
        <time>2012-01-12T12:20:05Z</time>
      </trkpt>
      <trkpt lat="44.89743" lon="6.81061">
        <ele>2268.85</ele>
        <time>2012-01-12T12:20:08Z</time>
      </trkpt>
      <trkpt lat="44.89744" lon="6.81051">
        <ele>2264.52</ele>
        <time>2012-01-12T12:20:11Z</time>
      </trkpt>
      <trkpt lat="44.89745" lon="6.81051">
        <ele>2263.08</ele>
        <time>2012-01-12T12:20:13Z</time>
      </trkpt>
      <trkpt lat="44.89745" lon="6.81051">
        <ele>2261.64</ele>
        <time>2012-01-12T12:20:16Z</time>
      </trkpt>
      <trkpt lat="44.89745" lon="6.81051">
        <ele>2265</ele>
        <time>2012-01-12T12:20:22Z</time>
      </trkpt>
      <trkpt lat="44.89757" lon="6.81045">
        <ele>2265.96</ele>
        <time>2012-01-12T12:20:38Z</time>
      </trkpt>
      <trkpt lat="44.89765" lon="6.81045">
        <ele>2262.6</ele>
        <time>2012-01-12T12:20:41Z</time>
      </trkpt>
      <trkpt lat="44.89774" lon="6.81046">
        <ele>2259.72</ele>
        <time>2012-01-12T12:20:44Z</time>
      </trkpt>
      <trkpt lat="44.89776" lon="6.81047">
        <ele>2257.79</ele>
        <time>2012-01-12T12:20:55Z</time>
      </trkpt>
      <trkpt lat="44.89776" lon="6.81047">
        <ele>2258.75</ele>
        <time>2012-01-12T12:20:58Z</time>
      </trkpt>
      <trkpt lat="44.89798" lon="6.81045">
        <ele>2258.75</ele>
        <time>2012-01-12T12:21:07Z</time>
      </trkpt>
      <trkpt lat="44.89808" lon="6.81047">
        <ele>2255.39</ele>
        <time>2012-01-12T12:21:10Z</time>
      </trkpt>
      <trkpt lat="44.89813" lon="6.81051">
        <ele>2252.99</ele>
        <time>2012-01-12T12:21:14Z</time>
      </trkpt>
      <trkpt lat="44.89815" lon="6.81051">
        <ele>2252.03</ele>
        <time>2012-01-12T12:21:26Z</time>
      </trkpt>
      <trkpt lat="44.89826" lon="6.81053">
        <ele>2253.47</ele>
        <time>2012-01-12T12:21:32Z</time>
      </trkpt>
      <trkpt lat="44.89829" lon="6.81046">
        <ele>2250.1</ele>
        <time>2012-01-12T12:21:39Z</time>
      </trkpt>
      <trkpt lat="44.89829" lon="6.81046">
        <ele>2247.7</ele>
        <time>2012-01-12T12:21:45Z</time>
      </trkpt>
      <trkpt lat="44.89836" lon="6.81045">
        <ele>2247.7</ele>
        <time>2012-01-12T12:21:55Z</time>
      </trkpt>
      <trkpt lat="44.89836" lon="6.81045">
        <ele>2247.7</ele>
        <time>2012-01-12T12:22:00Z</time>
      </trkpt>
      <trkpt lat="44.8984" lon="6.81029">
        <ele>2246.26</ele>
        <time>2012-01-12T12:22:08Z</time>
      </trkpt>
      <trkpt lat="44.89846" lon="6.81031">
        <ele>2242.41</ele>
        <time>2012-01-12T12:22:15Z</time>
      </trkpt>
      <trkpt lat="44.89846" lon="6.81031">
        <ele>2240.97</ele>
        <time>2012-01-12T12:22:29Z</time>
      </trkpt>
      <trkpt lat="44.89859" lon="6.8103">
        <ele>2240.97</ele>
        <time>2012-01-12T12:22:37Z</time>
      </trkpt>
      <trkpt lat="44.89859" lon="6.81023">
        <ele>2238.09</ele>
        <time>2012-01-12T12:22:40Z</time>
      </trkpt>
      <trkpt lat="44.89862" lon="6.81013">
        <ele>2235.68</ele>
        <time>2012-01-12T12:22:43Z</time>
      </trkpt>
      <trkpt lat="44.89873" lon="6.81014">
        <ele>2230.88</ele>
        <time>2012-01-12T12:22:47Z</time>
      </trkpt>
      <trkpt lat="44.89885" lon="6.81017">
        <ele>2227.51</ele>
        <time>2012-01-12T12:22:50Z</time>
      </trkpt>
      <trkpt lat="44.89894" lon="6.81014">
        <ele>2225.59</ele>
        <time>2012-01-12T12:22:53Z</time>
      </trkpt>
      <trkpt lat="44.899" lon="6.8101">
        <ele>2227.03</ele>
        <time>2012-01-12T12:23:07Z</time>
      </trkpt>
      <trkpt lat="44.89901" lon="6.81009">
        <ele>2227.03</ele>
        <time>2012-01-12T12:23:10Z</time>
      </trkpt>
      <trkpt lat="44.89913" lon="6.80976">
        <ele>2224.15</ele>
        <time>2012-01-12T12:23:20Z</time>
      </trkpt>
      <trkpt lat="44.89925" lon="6.80963">
        <ele>2218.86</ele>
        <time>2012-01-12T12:23:24Z</time>
      </trkpt>
      <trkpt lat="44.89936" lon="6.80954">
        <ele>2215.98</ele>
        <time>2012-01-12T12:23:27Z</time>
      </trkpt>
      <trkpt lat="44.89954" lon="6.80929">
        <ele>2213.09</ele>
        <time>2012-01-12T12:23:37Z</time>
      </trkpt>
      <trkpt lat="44.89974" lon="6.80904">
        <ele>2214.05</ele>
        <time>2012-01-12T12:23:47Z</time>
      </trkpt>
      <trkpt lat="44.89979" lon="6.80897">
        <ele>2211.17</ele>
        <time>2012-01-12T12:23:49Z</time>
      </trkpt>
      <trkpt lat="44.89983" lon="6.80885">
        <ele>2206.84</ele>
        <time>2012-01-12T12:23:52Z</time>
      </trkpt>
      <trkpt lat="44.89984" lon="6.8088">
        <ele>2205.88</ele>
        <time>2012-01-12T12:23:53Z</time>
      </trkpt>
      <trkpt lat="44.89988" lon="6.80869">
        <ele>2204.44</ele>
        <time>2012-01-12T12:23:55Z</time>
      </trkpt>
      <trkpt lat="44.89996" lon="6.80843">
        <ele>2201.08</ele>
        <time>2012-01-12T12:24:01Z</time>
      </trkpt>
      <trkpt lat="44.90002" lon="6.80829">
        <ele>2201.08</ele>
        <time>2012-01-12T12:24:12Z</time>
      </trkpt>
      <trkpt lat="44.90002" lon="6.80829">
        <ele>2201.08</ele>
        <time>2012-01-12T12:24:15Z</time>
      </trkpt>
      <trkpt lat="44.90006" lon="6.80792">
        <ele>2200.59</ele>
        <time>2012-01-12T12:24:25Z</time>
      </trkpt>
      <trkpt lat="44.90008" lon="6.80771">
        <ele>2196.75</ele>
        <time>2012-01-12T12:24:29Z</time>
      </trkpt>
      <trkpt lat="44.9001" lon="6.80757">
        <ele>2192.9</ele>
        <time>2012-01-12T12:24:32Z</time>
      </trkpt>
      <trkpt lat="44.90012" lon="6.80743">
        <ele>2189.54</ele>
        <time>2012-01-12T12:24:36Z</time>
      </trkpt>
      <trkpt lat="44.90016" lon="6.80724">
        <ele>2189.06</ele>
        <time>2012-01-12T12:24:47Z</time>
      </trkpt>
      <trkpt lat="44.90016" lon="6.80724">
        <ele>2189.06</ele>
        <time>2012-01-12T12:24:54Z</time>
      </trkpt>
      <trkpt lat="44.90025" lon="6.80714">
        <ele>2188.1</ele>
        <time>2012-01-12T12:24:58Z</time>
      </trkpt>
      <trkpt lat="44.90027" lon="6.80695">
        <ele>2184.25</ele>
        <time>2012-01-12T12:25:03Z</time>
      </trkpt>
      <trkpt lat="44.90026" lon="6.8067">
        <ele>2180.89</ele>
        <time>2012-01-12T12:25:09Z</time>
      </trkpt>
      <trkpt lat="44.90027" lon="6.80666">
        <ele>2180.41</ele>
        <time>2012-01-12T12:25:10Z</time>
      </trkpt>
      <trkpt lat="44.90034" lon="6.8064">
        <ele>2176.56</ele>
        <time>2012-01-12T12:25:14Z</time>
      </trkpt>
      <trkpt lat="44.90038" lon="6.8062">
        <ele>2174.64</ele>
        <time>2012-01-12T12:25:17Z</time>
      </trkpt>
      <trkpt lat="44.90035" lon="6.80597">
        <ele>2172.24</ele>
        <time>2012-01-12T12:25:21Z</time>
      </trkpt>
      <trkpt lat="44.90026" lon="6.80575">
        <ele>2173.2</ele>
        <time>2012-01-12T12:25:35Z</time>
      </trkpt>
      <trkpt lat="44.90026" lon="6.80575">
        <ele>2173.68</ele>
        <time>2012-01-12T12:25:53Z</time>
      </trkpt>
      <trkpt lat="44.90026" lon="6.80575">
        <ele>2174.16</ele>
        <time>2012-01-12T12:26:20Z</time>
      </trkpt>
      <trkpt lat="44.90026" lon="6.80575">
        <ele>2174.16</ele>
        <time>2012-01-12T12:26:46Z</time>
      </trkpt>
      <trkpt lat="44.90026" lon="6.80575">
        <ele>2174.16</ele>
        <time>2012-01-12T12:27:09Z</time>
      </trkpt>
      <trkpt lat="44.90026" lon="6.80574">
        <ele>2174.16</ele>
        <time>2012-01-12T12:27:10Z</time>
      </trkpt>
      <trkpt lat="44.90015" lon="6.80551">
        <ele>2172.72</ele>
        <time>2012-01-12T12:27:18Z</time>
      </trkpt>
      <trkpt lat="44.90019" lon="6.8054">
        <ele>2168.39</ele>
        <time>2012-01-12T12:27:22Z</time>
      </trkpt>
      <trkpt lat="44.90019" lon="6.80541">
        <ele>2166.95</ele>
        <time>2012-01-12T12:27:24Z</time>
      </trkpt>
      <trkpt lat="44.9002" lon="6.80528">
        <ele>2165.03</ele>
        <time>2012-01-12T12:27:29Z</time>
      </trkpt>
      <trkpt lat="44.90017" lon="6.80525">
        <ele>2164.55</ele>
        <time>2012-01-12T12:27:36Z</time>
      </trkpt>
      <trkpt lat="44.90031" lon="6.80499">
        <ele>2162.14</ele>
        <time>2012-01-12T12:27:44Z</time>
      </trkpt>
      <trkpt lat="44.90036" lon="6.80491">
        <ele>2159.74</ele>
        <time>2012-01-12T12:27:46Z</time>
      </trkpt>
      <trkpt lat="44.90035" lon="6.80477">
        <ele>2154.93</ele>
        <time>2012-01-12T12:27:49Z</time>
      </trkpt>
      <trkpt lat="44.90031" lon="6.80462">
        <ele>2150.13</ele>
        <time>2012-01-12T12:27:53Z</time>
      </trkpt>
      <trkpt lat="44.90031" lon="6.80461">
        <ele>2150.13</ele>
        <time>2012-01-12T12:27:54Z</time>
      </trkpt>
      <trkpt lat="44.90032" lon="6.80463">
        <ele>2153.49</ele>
        <time>2012-01-12T12:27:59Z</time>
      </trkpt>
      <trkpt lat="44.90032" lon="6.80462">
        <ele>2156.86</ele>
        <time>2012-01-12T12:28:04Z</time>
      </trkpt>
      <trkpt lat="44.90029" lon="6.80459">
        <ele>2156.86</ele>
        <time>2012-01-12T12:28:08Z</time>
      </trkpt>
      <trkpt lat="44.90026" lon="6.80429">
        <ele>2153.49</ele>
        <time>2012-01-12T12:28:16Z</time>
      </trkpt>
      <trkpt lat="44.90027" lon="6.80425">
        <ele>2152.53</ele>
        <time>2012-01-12T12:28:17Z</time>
      </trkpt>
      <trkpt lat="44.90032" lon="6.80418">
        <ele>2148.2</ele>
        <time>2012-01-12T12:28:22Z</time>
      </trkpt>
      <trkpt lat="44.90011" lon="6.80403">
        <ele>2147.72</ele>
        <time>2012-01-12T12:28:31Z</time>
      </trkpt>
      <trkpt lat="44.90006" lon="6.80404">
        <ele>2143.88</ele>
        <time>2012-01-12T12:28:36Z</time>
      </trkpt>
      <trkpt lat="44.90006" lon="6.80404">
        <ele>2142.92</ele>
        <time>2012-01-12T12:28:44Z</time>
      </trkpt>
      <trkpt lat="44.89994" lon="6.80397">
        <ele>2142.92</ele>
        <time>2012-01-12T12:28:50Z</time>
      </trkpt>
      <trkpt lat="44.90002" lon="6.80373">
        <ele>2139.07</ele>
        <time>2012-01-12T12:28:56Z</time>
      </trkpt>
      <trkpt lat="44.90013" lon="6.80361">
        <ele>2133.78</ele>
        <time>2012-01-12T12:29:00Z</time>
      </trkpt>
      <trkpt lat="44.90015" lon="6.80357">
        <ele>2131.38</ele>
        <time>2012-01-12T12:29:03Z</time>
      </trkpt>
      <trkpt lat="44.90021" lon="6.80333">
        <ele>2130.9</ele>
        <time>2012-01-12T12:29:10Z</time>
      </trkpt>
      <trkpt lat="44.90037" lon="6.8032">
        <ele>2130.42</ele>
        <time>2012-01-12T12:29:15Z</time>
      </trkpt>
      <trkpt lat="44.90051" lon="6.80313">
        <ele>2125.61</ele>
        <time>2012-01-12T12:29:19Z</time>
      </trkpt>
      <trkpt lat="44.90053" lon="6.80298">
        <ele>2121.77</ele>
        <time>2012-01-12T12:29:23Z</time>
      </trkpt>
      <trkpt lat="44.90051" lon="6.80297">
        <ele>2125.13</ele>
        <time>2012-01-12T12:29:34Z</time>
      </trkpt>
      <trkpt lat="44.90051" lon="6.80297">
        <ele>2125.61</ele>
        <time>2012-01-12T12:29:39Z</time>
      </trkpt>
      <trkpt lat="44.90059" lon="6.80279">
        <ele>2122.25</ele>
        <time>2012-01-12T12:29:45Z</time>
      </trkpt>
      <trkpt lat="44.9007" lon="6.80275">
        <ele>2118.88</ele>
        <time>2012-01-12T12:29:49Z</time>
      </trkpt>
      <trkpt lat="44.90073" lon="6.80274">
        <ele>2117.92</ele>
        <time>2012-01-12T12:29:50Z</time>
      </trkpt>
      <trkpt lat="44.9009" lon="6.80268">
        <ele>2115.04</ele>
        <time>2012-01-12T12:30:00Z</time>
      </trkpt>
      <trkpt lat="44.90094" lon="6.80266">
        <ele>2116</ele>
        <time>2012-01-12T12:30:10Z</time>
      </trkpt>
      <trkpt lat="44.90092" lon="6.80243">
        <ele>2113.12</ele>
        <time>2012-01-12T12:30:18Z</time>
      </trkpt>
      <trkpt lat="44.90086" lon="6.80225">
        <ele>2109.75</ele>
        <time>2012-01-12T12:30:21Z</time>
      </trkpt>
      <trkpt lat="44.90087" lon="6.80204">
        <ele>2105.42</ele>
        <time>2012-01-12T12:30:24Z</time>
      </trkpt>
      <trkpt lat="44.90102" lon="6.80187">
        <ele>2102.06</ele>
        <time>2012-01-12T12:30:28Z</time>
      </trkpt>
      <trkpt lat="44.90117" lon="6.80172">
        <ele>2099.66</ele>
        <time>2012-01-12T12:30:32Z</time>
      </trkpt>
      <trkpt lat="44.90125" lon="6.80158">
        <ele>2098.7</ele>
        <time>2012-01-12T12:30:36Z</time>
      </trkpt>
      <trkpt lat="44.90128" lon="6.80158">
        <ele>2100.62</ele>
        <time>2012-01-12T12:30:48Z</time>
      </trkpt>
      <trkpt lat="44.9013" lon="6.80156">
        <ele>2101.1</ele>
        <time>2012-01-12T12:30:55Z</time>
      </trkpt>
      <trkpt lat="44.90141" lon="6.80142">
        <ele>2101.1</ele>
        <time>2012-01-12T12:31:01Z</time>
      </trkpt>
      <trkpt lat="44.90143" lon="6.80126">
        <ele>2098.7</ele>
        <time>2012-01-12T12:31:03Z</time>
      </trkpt>
      <trkpt lat="44.90148" lon="6.80108">
        <ele>2093.41</ele>
        <time>2012-01-12T12:31:06Z</time>
      </trkpt>
      <trkpt lat="44.90149" lon="6.80105">
        <ele>2091.49</ele>
        <time>2012-01-12T12:31:07Z</time>
      </trkpt>
      <trkpt lat="44.90148" lon="6.80094">
        <ele>2089.56</ele>
        <time>2012-01-12T12:31:10Z</time>
      </trkpt>
      <trkpt lat="44.90133" lon="6.80074">
        <ele>2087.64</ele>
        <time>2012-01-12T12:31:19Z</time>
      </trkpt>
      <trkpt lat="44.90132" lon="6.80072">
        <ele>2090.04</ele>
        <time>2012-01-12T12:31:33Z</time>
      </trkpt>
      <trkpt lat="44.90125" lon="6.80064">
        <ele>2090.52</ele>
        <time>2012-01-12T12:31:47Z</time>
      </trkpt>
      <trkpt lat="44.90115" lon="6.80052">
        <ele>2089.08</ele>
        <time>2012-01-12T12:31:56Z</time>
      </trkpt>
      <trkpt lat="44.9012" lon="6.80035">
        <ele>2087.16</ele>
        <time>2012-01-12T12:32:04Z</time>
      </trkpt>
      <trkpt lat="44.90125" lon="6.80031">
        <ele>2083.79</ele>
        <time>2012-01-12T12:32:09Z</time>
      </trkpt>
      <trkpt lat="44.90125" lon="6.80025">
        <ele>2081.87</ele>
        <time>2012-01-12T12:32:22Z</time>
      </trkpt>
      <trkpt lat="44.90125" lon="6.80025">
        <ele>2083.31</ele>
        <time>2012-01-12T12:32:28Z</time>
      </trkpt>
      <trkpt lat="44.90119" lon="6.80017">
        <ele>2083.31</ele>
        <time>2012-01-12T12:32:33Z</time>
      </trkpt>
      <trkpt lat="44.90115" lon="6.80008">
        <ele>2083.31</ele>
        <time>2012-01-12T12:32:36Z</time>
      </trkpt>
      <trkpt lat="44.90118" lon="6.8">
        <ele>2079.95</ele>
        <time>2012-01-12T12:32:41Z</time>
      </trkpt>
      <trkpt lat="44.90118" lon="6.80001">
        <ele>2078.51</ele>
        <time>2012-01-12T12:32:47Z</time>
      </trkpt>
      <trkpt lat="44.90115" lon="6.7997">
        <ele>2076.1</ele>
        <time>2012-01-12T12:32:54Z</time>
      </trkpt>
      <trkpt lat="44.90118" lon="6.79953">
        <ele>2072.74</ele>
        <time>2012-01-12T12:32:57Z</time>
      </trkpt>
      <trkpt lat="44.90123" lon="6.79928">
        <ele>2067.93</ele>
        <time>2012-01-12T12:33:02Z</time>
      </trkpt>
      <trkpt lat="44.90128" lon="6.79863">
        <ele>2066.97</ele>
        <time>2012-01-12T12:33:15Z</time>
      </trkpt>
      <trkpt lat="44.90129" lon="6.79848">
        <ele>2066.01</ele>
        <time>2012-01-12T12:33:19Z</time>
      </trkpt>
      <trkpt lat="44.9013" lon="6.79845">
        <ele>2064.57</ele>
        <time>2012-01-12T12:33:32Z</time>
      </trkpt>
      <trkpt lat="44.9013" lon="6.79845">
        <ele>2064.09</ele>
        <time>2012-01-12T12:33:55Z</time>
      </trkpt>
      <trkpt lat="44.90131" lon="6.79847">
        <ele>2064.09</ele>
        <time>2012-01-12T12:34:23Z</time>
      </trkpt>
      <trkpt lat="44.90131" lon="6.79848">
        <ele>2064.09</ele>
        <time>2012-01-12T12:34:50Z</time>
      </trkpt>
      <trkpt lat="44.90131" lon="6.79848">
        <ele>2064.09</ele>
        <time>2012-01-12T12:35:16Z</time>
      </trkpt>
      <trkpt lat="44.90133" lon="6.79844">
        <ele>2064.09</ele>
        <time>2012-01-12T12:35:31Z</time>
      </trkpt>
      <trkpt lat="44.90134" lon="6.79843">
        <ele>2064.09</ele>
        <time>2012-01-12T12:35:33Z</time>
      </trkpt>
      <trkpt lat="44.90134" lon="6.79842">
        <ele>2064.09</ele>
        <time>2012-01-12T12:35:35Z</time>
      </trkpt>
      <trkpt lat="44.90135" lon="6.79839">
        <ele>2064.09</ele>
        <time>2012-01-12T12:35:41Z</time>
      </trkpt>
      <trkpt lat="44.90135" lon="6.79828">
        <ele>2063.61</ele>
        <time>2012-01-12T12:35:45Z</time>
      </trkpt>
      <trkpt lat="44.90144" lon="6.79816">
        <ele>2063.13</ele>
        <time>2012-01-12T12:35:51Z</time>
      </trkpt>
      <trkpt lat="44.90158" lon="6.7981">
        <ele>2061.2</ele>
        <time>2012-01-12T12:35:57Z</time>
      </trkpt>
      <trkpt lat="44.9016" lon="6.79798">
        <ele>2056.88</ele>
        <time>2012-01-12T12:36:00Z</time>
      </trkpt>
      <trkpt lat="44.90154" lon="6.79785">
        <ele>2052.55</ele>
        <time>2012-01-12T12:36:03Z</time>
      </trkpt>
      <trkpt lat="44.90151" lon="6.79765">
        <ele>2048.23</ele>
        <time>2012-01-12T12:36:06Z</time>
      </trkpt>
      <trkpt lat="44.90161" lon="6.79749">
        <ele>2044.86</ele>
        <time>2012-01-12T12:36:09Z</time>
      </trkpt>
      <trkpt lat="44.90165" lon="6.79746">
        <ele>2044.38</ele>
        <time>2012-01-12T12:36:10Z</time>
      </trkpt>
      <trkpt lat="44.90184" lon="6.79738">
        <ele>2043.42</ele>
        <time>2012-01-12T12:36:20Z</time>
      </trkpt>
      <trkpt lat="44.90193" lon="6.79736">
        <ele>2044.86</ele>
        <time>2012-01-12T12:36:36Z</time>
      </trkpt>
      <trkpt lat="44.90208" lon="6.79735">
        <ele>2043.42</ele>
        <time>2012-01-12T12:36:41Z</time>
      </trkpt>
      <trkpt lat="44.90217" lon="6.79726">
        <ele>2039.57</ele>
        <time>2012-01-12T12:36:45Z</time>
      </trkpt>
      <trkpt lat="44.90219" lon="6.79715">
        <ele>2036.21</ele>
        <time>2012-01-12T12:36:47Z</time>
      </trkpt>
      <trkpt lat="44.90215" lon="6.79705">
        <ele>2032.84</ele>
        <time>2012-01-12T12:36:49Z</time>
      </trkpt>
      <trkpt lat="44.90213" lon="6.797">
        <ele>2031.4</ele>
        <time>2012-01-12T12:36:50Z</time>
      </trkpt>
      <trkpt lat="44.90208" lon="6.79691">
        <ele>2029.48</ele>
        <time>2012-01-12T12:36:53Z</time>
      </trkpt>
      <trkpt lat="44.90218" lon="6.79656">
        <ele>2027.56</ele>
        <time>2012-01-12T12:37:00Z</time>
      </trkpt>
      <trkpt lat="44.9024" lon="6.79643">
        <ele>2023.71</ele>
        <time>2012-01-12T12:37:06Z</time>
      </trkpt>
      <trkpt lat="44.90247" lon="6.79636">
        <ele>2022.75</ele>
        <time>2012-01-12T12:37:08Z</time>
      </trkpt>
      <trkpt lat="44.90261" lon="6.79624">
        <ele>2019.87</ele>
        <time>2012-01-12T12:37:12Z</time>
      </trkpt>
      <trkpt lat="44.90263" lon="6.79624">
        <ele>2023.71</ele>
        <time>2012-01-12T12:37:19Z</time>
      </trkpt>
      <trkpt lat="44.90263" lon="6.79623">
        <ele>2023.71</ele>
        <time>2012-01-12T12:37:20Z</time>
      </trkpt>
      <trkpt lat="44.9027" lon="6.79629">
        <ele>2024.19</ele>
        <time>2012-01-12T12:37:29Z</time>
      </trkpt>
      <trkpt lat="44.90275" lon="6.79633">
        <ele>2024.19</ele>
        <time>2012-01-12T12:37:34Z</time>
      </trkpt>
      <trkpt lat="44.90308" lon="6.79646">
        <ele>2021.79</ele>
        <time>2012-01-12T12:37:52Z</time>
      </trkpt>
      <trkpt lat="44.90331" lon="6.79661">
        <ele>2020.83</ele>
        <time>2012-01-12T12:38:06Z</time>
      </trkpt>
      <trkpt lat="44.90358" lon="6.79666">
        <ele>2019.39</ele>
        <time>2012-01-12T12:38:20Z</time>
      </trkpt>
      <trkpt lat="44.90372" lon="6.79665">
        <ele>2018.91</ele>
        <time>2012-01-12T12:38:37Z</time>
      </trkpt>
      <trkpt lat="44.90373" lon="6.79666">
        <ele>2018.43</ele>
        <time>2012-01-12T12:38:50Z</time>
      </trkpt>
      <trkpt lat="44.90373" lon="6.79666">
        <ele>2018.43</ele>
        <time>2012-01-12T12:39:07Z</time>
      </trkpt>
      <trkpt lat="44.90373" lon="6.79666">
        <ele>2018.43</ele>
        <time>2012-01-12T12:39:38Z</time>
      </trkpt>
      <trkpt lat="44.90373" lon="6.79666">
        <ele>2018.43</ele>
        <time>2012-01-12T12:39:59Z</time>
      </trkpt>
      <trkpt lat="44.90375" lon="6.79667">
        <ele>2018.43</ele>
        <time>2012-01-12T12:40:06Z</time>
      </trkpt>
      <trkpt lat="44.90389" lon="6.79678">
        <ele>2017.94</ele>
        <time>2012-01-12T12:40:21Z</time>
      </trkpt>
      <trkpt lat="44.90395" lon="6.79688">
        <ele>2017.94</ele>
        <time>2012-01-12T12:40:28Z</time>
      </trkpt>
      <trkpt lat="44.90414" lon="6.79713">
        <ele>2017.46</ele>
        <time>2012-01-12T12:40:44Z</time>
      </trkpt>
      <trkpt lat="44.90432" lon="6.79725">
        <ele>2016.98</ele>
        <time>2012-01-12T12:40:59Z</time>
      </trkpt>
      <trkpt lat="44.90447" lon="6.79733">
        <ele>2016.5</ele>
        <time>2012-01-12T12:41:08Z</time>
      </trkpt>
      <trkpt lat="44.90479" lon="6.79747">
        <ele>2015.06</ele>
        <time>2012-01-12T12:41:24Z</time>
      </trkpt>
      <trkpt lat="44.9051" lon="6.79752">
        <ele>2014.1</ele>
        <time>2012-01-12T12:41:38Z</time>
      </trkpt>
      <trkpt lat="44.90526" lon="6.79761">
        <ele>2012.66</ele>
        <time>2012-01-12T12:41:42Z</time>
      </trkpt>
      <trkpt lat="44.90539" lon="6.79776">
        <ele>2007.85</ele>
        <time>2012-01-12T12:41:46Z</time>
      </trkpt>
      <trkpt lat="44.90546" lon="6.79786">
        <ele>2005.93</ele>
        <time>2012-01-12T12:41:49Z</time>
      </trkpt>
      <trkpt lat="44.90555" lon="6.79799">
        <ele>2005.45</ele>
        <time>2012-01-12T12:41:55Z</time>
      </trkpt>
      <trkpt lat="44.90564" lon="6.79818">
        <ele>2006.89</ele>
        <time>2012-01-12T12:42:03Z</time>
      </trkpt>
      <trkpt lat="44.90577" lon="6.79837">
        <ele>2006.89</ele>
        <time>2012-01-12T12:42:08Z</time>
      </trkpt>
      <trkpt lat="44.90596" lon="6.79859">
        <ele>2004.01</ele>
        <time>2012-01-12T12:42:13Z</time>
      </trkpt>
      <trkpt lat="44.90607" lon="6.79877">
        <ele>2000.16</ele>
        <time>2012-01-12T12:42:18Z</time>
      </trkpt>
      <trkpt lat="44.90625" lon="6.79893">
        <ele>1999.68</ele>
        <time>2012-01-12T12:42:29Z</time>
      </trkpt>
      <trkpt lat="44.90638" lon="6.79892">
        <ele>1997.76</ele>
        <time>2012-01-12T12:42:33Z</time>
      </trkpt>
      <trkpt lat="44.90654" lon="6.7989">
        <ele>1992.47</ele>
        <time>2012-01-12T12:42:37Z</time>
      </trkpt>
      <trkpt lat="44.90665" lon="6.79892">
        <ele>1989.59</ele>
        <time>2012-01-12T12:42:40Z</time>
      </trkpt>
      <trkpt lat="44.90687" lon="6.79904">
        <ele>1987.66</ele>
        <time>2012-01-12T12:42:51Z</time>
      </trkpt>
      <trkpt lat="44.90697" lon="6.79921">
        <ele>1988.14</ele>
        <time>2012-01-12T12:43:03Z</time>
      </trkpt>
      <trkpt lat="44.90701" lon="6.79926">
        <ele>1988.14</ele>
        <time>2012-01-12T12:43:05Z</time>
      </trkpt>
      <trkpt lat="44.90721" lon="6.79921">
        <ele>1985.26</ele>
        <time>2012-01-12T12:43:11Z</time>
      </trkpt>
      <trkpt lat="44.90735" lon="6.79913">
        <ele>1980.45</ele>
        <time>2012-01-12T12:43:15Z</time>
      </trkpt>
      <trkpt lat="44.90775" lon="6.79927">
        <ele>1980.45</ele>
        <time>2012-01-12T12:43:26Z</time>
      </trkpt>
      <trkpt lat="44.908" lon="6.79932">
        <ele>1980.45</ele>
        <time>2012-01-12T12:43:36Z</time>
      </trkpt>
      <trkpt lat="44.90817" lon="6.79931">
        <ele>1980.45</ele>
        <time>2012-01-12T12:43:49Z</time>
      </trkpt>
      <trkpt lat="44.9083" lon="6.79929">
        <ele>1980.45</ele>
        <time>2012-01-12T12:44:02Z</time>
      </trkpt>
      <trkpt lat="44.9083" lon="6.79929">
        <ele>1980.45</ele>
        <time>2012-01-12T12:44:23Z</time>
      </trkpt>
      <trkpt lat="44.9083" lon="6.79929">
        <ele>1980.45</ele>
        <time>2012-01-12T12:44:54Z</time>
      </trkpt>
      <trkpt lat="44.9083" lon="6.79928">
        <ele>1980.45</ele>
        <time>2012-01-12T12:45:23Z</time>
      </trkpt>
      <trkpt lat="44.9083" lon="6.79928">
        <ele>1980.45</ele>
        <time>2012-01-12T12:45:49Z</time>
      </trkpt>
      <trkpt lat="44.90849" lon="6.79928">
        <ele>1980.45</ele>
        <time>2012-01-12T12:46:05Z</time>
      </trkpt>
      <trkpt lat="44.90864" lon="6.79937">
        <ele>1980.45</ele>
        <time>2012-01-12T12:46:17Z</time>
      </trkpt>
      <trkpt lat="44.90891" lon="6.79956">
        <ele>1979.01</ele>
        <time>2012-01-12T12:46:30Z</time>
      </trkpt>
      <trkpt lat="44.90911" lon="6.79974">
        <ele>1977.57</ele>
        <time>2012-01-12T12:46:37Z</time>
      </trkpt>
      <trkpt lat="44.9093" lon="6.7999">
        <ele>1976.61</ele>
        <time>2012-01-12T12:46:42Z</time>
      </trkpt>
      <trkpt lat="44.90946" lon="6.80001">
        <ele>1972.28</ele>
        <time>2012-01-12T12:46:46Z</time>
      </trkpt>
      <trkpt lat="44.90965" lon="6.80012">
        <ele>1968.92</ele>
        <time>2012-01-12T12:46:51Z</time>
      </trkpt>
      <trkpt lat="44.90989" lon="6.80026">
        <ele>1967.96</ele>
        <time>2012-01-12T12:46:57Z</time>
      </trkpt>
      <trkpt lat="44.91003" lon="6.80034">
        <ele>1967.48</ele>
        <time>2012-01-12T12:47:01Z</time>
      </trkpt>
      <trkpt lat="44.91029" lon="6.80028">
        <ele>1963.63</ele>
        <time>2012-01-12T12:47:08Z</time>
      </trkpt>
      <trkpt lat="44.91046" lon="6.80026">
        <ele>1959.78</ele>
        <time>2012-01-12T12:47:11Z</time>
      </trkpt>
      <trkpt lat="44.91051" lon="6.80025">
        <ele>1958.34</ele>
        <time>2012-01-12T12:47:12Z</time>
      </trkpt>
      <trkpt lat="44.91072" lon="6.8003">
        <ele>1953.54</ele>
        <time>2012-01-12T12:47:16Z</time>
      </trkpt>
      <trkpt lat="44.91091" lon="6.80039">
        <ele>1952.57</ele>
        <time>2012-01-12T12:47:26Z</time>
      </trkpt>
      <trkpt lat="44.91108" lon="6.80032">
        <ele>1952.57</ele>
        <time>2012-01-12T12:47:40Z</time>
      </trkpt>
      <trkpt lat="44.9113" lon="6.8001">
        <ele>1950.17</ele>
        <time>2012-01-12T12:47:48Z</time>
      </trkpt>
      <trkpt lat="44.9115" lon="6.79997">
        <ele>1945.36</ele>
        <time>2012-01-12T12:47:53Z</time>
      </trkpt>
      <trkpt lat="44.91162" lon="6.79983">
        <ele>1942</ele>
        <time>2012-01-12T12:47:57Z</time>
      </trkpt>
      <trkpt lat="44.9118" lon="6.79966">
        <ele>1940.56</ele>
        <time>2012-01-12T12:48:02Z</time>
      </trkpt>
      <trkpt lat="44.91214" lon="6.79947">
        <ele>1936.23</ele>
        <time>2012-01-12T12:48:11Z</time>
      </trkpt>
      <trkpt lat="44.91238" lon="6.79932">
        <ele>1932.87</ele>
        <time>2012-01-12T12:48:18Z</time>
      </trkpt>
      <trkpt lat="44.91254" lon="6.79921">
        <ele>1929.98</ele>
        <time>2012-01-12T12:48:23Z</time>
      </trkpt>
      <trkpt lat="44.91271" lon="6.79923">
        <ele>1929.02</ele>
        <time>2012-01-12T12:48:27Z</time>
      </trkpt>
      <trkpt lat="44.91278" lon="6.79929">
        <ele>1927.1</ele>
        <time>2012-01-12T12:48:29Z</time>
      </trkpt>
      <trkpt lat="44.91287" lon="6.79947">
        <ele>1924.7</ele>
        <time>2012-01-12T12:48:33Z</time>
      </trkpt>
      <trkpt lat="44.91293" lon="6.7997">
        <ele>1921.81</ele>
        <time>2012-01-12T12:48:37Z</time>
      </trkpt>
      <trkpt lat="44.91301" lon="6.80002">
        <ele>1917.49</ele>
        <time>2012-01-12T12:48:43Z</time>
      </trkpt>
      <trkpt lat="44.913" lon="6.80029">
        <ele>1916.53</ele>
        <time>2012-01-12T12:48:54Z</time>
      </trkpt>
      <trkpt lat="44.91304" lon="6.80039">
        <ele>1916.04</ele>
        <time>2012-01-12T12:49:04Z</time>
      </trkpt>
      <trkpt lat="44.91321" lon="6.80045">
        <ele>1915.56</ele>
        <time>2012-01-12T12:49:10Z</time>
      </trkpt>
      <trkpt lat="44.91334" lon="6.80059">
        <ele>1914.6</ele>
        <time>2012-01-12T12:49:14Z</time>
      </trkpt>
      <trkpt lat="44.91362" lon="6.80084">
        <ele>1910.76</ele>
        <time>2012-01-12T12:49:22Z</time>
      </trkpt>
      <trkpt lat="44.91376" lon="6.80089">
        <ele>1907.87</ele>
        <time>2012-01-12T12:49:25Z</time>
      </trkpt>
      <trkpt lat="44.91401" lon="6.80093">
        <ele>1903.55</ele>
        <time>2012-01-12T12:49:30Z</time>
      </trkpt>
      <trkpt lat="44.91417" lon="6.80109">
        <ele>1900.18</ele>
        <time>2012-01-12T12:49:34Z</time>
      </trkpt>
      <trkpt lat="44.91424" lon="6.80124">
        <ele>1898.74</ele>
        <time>2012-01-12T12:49:37Z</time>
      </trkpt>
      <trkpt lat="44.91426" lon="6.80128">
        <ele>1898.26</ele>
        <time>2012-01-12T12:49:38Z</time>
      </trkpt>
      <trkpt lat="44.9145" lon="6.80127">
        <ele>1895.86</ele>
        <time>2012-01-12T12:49:46Z</time>
      </trkpt>
      <trkpt lat="44.91471" lon="6.80128">
        <ele>1891.05</ele>
        <time>2012-01-12T12:49:51Z</time>
      </trkpt>
      <trkpt lat="44.91482" lon="6.80146">
        <ele>1887.69</ele>
        <time>2012-01-12T12:49:55Z</time>
      </trkpt>
      <trkpt lat="44.91511" lon="6.80157">
        <ele>1884.8</ele>
        <time>2012-01-12T12:50:03Z</time>
      </trkpt>
      <trkpt lat="44.91529" lon="6.80166">
        <ele>1880.96</ele>
        <time>2012-01-12T12:50:07Z</time>
      </trkpt>
      <trkpt lat="44.91546" lon="6.80163">
        <ele>1876.63</ele>
        <time>2012-01-12T12:50:11Z</time>
      </trkpt>
      <trkpt lat="44.91556" lon="6.80161">
        <ele>1873.75</ele>
        <time>2012-01-12T12:50:15Z</time>
      </trkpt>
      <trkpt lat="44.91558" lon="6.8016">
        <ele>1877.11</ele>
        <time>2012-01-12T12:50:23Z</time>
      </trkpt>
      <trkpt lat="44.9156" lon="6.8016">
        <ele>1878.07</ele>
        <time>2012-01-12T12:50:25Z</time>
      </trkpt>
      <trkpt lat="44.91577" lon="6.80161">
        <ele>1876.63</ele>
        <time>2012-01-12T12:50:33Z</time>
      </trkpt>
      <trkpt lat="44.9159" lon="6.80178">
        <ele>1872.79</ele>
        <time>2012-01-12T12:50:37Z</time>
      </trkpt>
      <trkpt lat="44.91594" lon="6.80189">
        <ele>1870.86</ele>
        <time>2012-01-12T12:50:39Z</time>
      </trkpt>
      <trkpt lat="44.91599" lon="6.80237">
        <ele>1868.94</ele>
        <time>2012-01-12T12:50:50Z</time>
      </trkpt>
      <trkpt lat="44.916" lon="6.80267">
        <ele>1868.94</ele>
        <time>2012-01-12T12:51:01Z</time>
      </trkpt>
      <trkpt lat="44.916" lon="6.80271">
        <ele>1868.46</ele>
        <time>2012-01-12T12:51:02Z</time>
      </trkpt>
      <trkpt lat="44.91597" lon="6.80287">
        <ele>1864.61</ele>
        <time>2012-01-12T12:51:08Z</time>
      </trkpt>
      <trkpt lat="44.91595" lon="6.803">
        <ele>1861.73</ele>
        <time>2012-01-12T12:51:12Z</time>
      </trkpt>
      <trkpt lat="44.91595" lon="6.80307">
        <ele>1859.33</ele>
        <time>2012-01-12T12:51:17Z</time>
      </trkpt>
      <trkpt lat="44.916" lon="6.80316">
        <ele>1859.33</ele>
        <time>2012-01-12T12:51:21Z</time>
      </trkpt>
      <trkpt lat="44.91602" lon="6.8033">
        <ele>1855.96</ele>
        <time>2012-01-12T12:51:29Z</time>
      </trkpt>
      <trkpt lat="44.91604" lon="6.8033">
        <ele>1855.48</ele>
        <time>2012-01-12T12:51:33Z</time>
      </trkpt>
      <trkpt lat="44.91632" lon="6.80309">
        <ele>1855</ele>
        <time>2012-01-12T12:51:45Z</time>
      </trkpt>
      <trkpt lat="44.91636" lon="6.80308">
        <ele>1854.04</ele>
        <time>2012-01-12T12:51:46Z</time>
      </trkpt>
      <trkpt lat="44.91647" lon="6.80313">
        <ele>1853.56</ele>
        <time>2012-01-12T12:51:49Z</time>
      </trkpt>
      <trkpt lat="44.91667" lon="6.80329">
        <ele>1848.27</ele>
        <time>2012-01-12T12:51:54Z</time>
      </trkpt>
      <trkpt lat="44.91675" lon="6.8034">
        <ele>1844.91</ele>
        <time>2012-01-12T12:51:58Z</time>
      </trkpt>
      <trkpt lat="44.91695" lon="6.80365">
        <ele>1843.95</ele>
        <time>2012-01-12T12:52:08Z</time>
      </trkpt>
      <trkpt lat="44.91699" lon="6.8037">
        <ele>1843.47</ele>
        <time>2012-01-12T12:52:11Z</time>
      </trkpt>
      <trkpt lat="44.91705" lon="6.80372">
        <ele>1839.14</ele>
        <time>2012-01-12T12:52:17Z</time>
      </trkpt>
      <trkpt lat="44.91708" lon="6.80371">
        <ele>1838.66</ele>
        <time>2012-01-12T12:52:21Z</time>
      </trkpt>
      <trkpt lat="44.91709" lon="6.80361">
        <ele>1838.66</ele>
        <time>2012-01-12T12:52:26Z</time>
      </trkpt>
      <trkpt lat="44.91709" lon="6.80341">
        <ele>1838.66</ele>
        <time>2012-01-12T12:52:32Z</time>
      </trkpt>
      <trkpt lat="44.91716" lon="6.80334">
        <ele>1838.66</ele>
        <time>2012-01-12T12:52:36Z</time>
      </trkpt>
      <trkpt lat="44.91734" lon="6.80346">
        <ele>1836.74</ele>
        <time>2012-01-12T12:52:42Z</time>
      </trkpt>
      <trkpt lat="44.91742" lon="6.80362">
        <ele>1832.89</ele>
        <time>2012-01-12T12:52:46Z</time>
      </trkpt>
      <trkpt lat="44.91745" lon="6.8037">
        <ele>1831.45</ele>
        <time>2012-01-12T12:52:48Z</time>
      </trkpt>
      <trkpt lat="44.91749" lon="6.80381">
        <ele>1829.05</ele>
        <time>2012-01-12T12:52:51Z</time>
      </trkpt>
      <trkpt lat="44.91752" lon="6.80407">
        <ele>1828.56</ele>
        <time>2012-01-12T12:53:01Z</time>
      </trkpt>
      <trkpt lat="44.91764" lon="6.80438">
        <ele>1826.64</ele>
        <time>2012-01-12T12:53:13Z</time>
      </trkpt>
      <trkpt lat="44.91764" lon="6.80461">
        <ele>1824.72</ele>
        <time>2012-01-12T12:53:26Z</time>
      </trkpt>
      <trkpt lat="44.91746" lon="6.80495">
        <ele>1820.87</ele>
        <time>2012-01-12T12:53:34Z</time>
      </trkpt>
      <trkpt lat="44.91747" lon="6.80514">
        <ele>1817.51</ele>
        <time>2012-01-12T12:53:38Z</time>
      </trkpt>
      <trkpt lat="44.91753" lon="6.80577">
        <ele>1816.07</ele>
        <time>2012-01-12T12:53:51Z</time>
      </trkpt>
      <trkpt lat="44.91763" lon="6.80593">
        <ele>1814.63</ele>
        <time>2012-01-12T12:53:56Z</time>
      </trkpt>
      <trkpt lat="44.91777" lon="6.80599">
        <ele>1809.34</ele>
        <time>2012-01-12T12:54:00Z</time>
      </trkpt>
      <trkpt lat="44.91782" lon="6.80598">
        <ele>1807.42</ele>
        <time>2012-01-12T12:54:01Z</time>
      </trkpt>
      <trkpt lat="44.91802" lon="6.806">
        <ele>1802.13</ele>
        <time>2012-01-12T12:54:05Z</time>
      </trkpt>
      <trkpt lat="44.9181" lon="6.80605">
        <ele>1801.17</ele>
        <time>2012-01-12T12:54:07Z</time>
      </trkpt>
      <trkpt lat="44.9183" lon="6.8061">
        <ele>1801.17</ele>
        <time>2012-01-12T12:54:12Z</time>
      </trkpt>
      <trkpt lat="44.91838" lon="6.80604">
        <ele>1801.17</ele>
        <time>2012-01-12T12:54:14Z</time>
      </trkpt>
      <trkpt lat="44.91845" lon="6.80599">
        <ele>1800.69</ele>
        <time>2012-01-12T12:54:16Z</time>
      </trkpt>
      <trkpt lat="44.91858" lon="6.80579">
        <ele>1798.28</ele>
        <time>2012-01-12T12:54:20Z</time>
      </trkpt>
      <trkpt lat="44.91862" lon="6.80566">
        <ele>1795.88</ele>
        <time>2012-01-12T12:54:22Z</time>
      </trkpt>
      <trkpt lat="44.9187" lon="6.80542">
        <ele>1790.59</ele>
        <time>2012-01-12T12:54:26Z</time>
      </trkpt>
      <trkpt lat="44.91872" lon="6.80536">
        <ele>1789.63</ele>
        <time>2012-01-12T12:54:27Z</time>
      </trkpt>
      <trkpt lat="44.91887" lon="6.80515">
        <ele>1788.19</ele>
        <time>2012-01-12T12:54:34Z</time>
      </trkpt>
      <trkpt lat="44.9189" lon="6.80516">
        <ele>1787.71</ele>
        <time>2012-01-12T12:54:43Z</time>
      </trkpt>
      <trkpt lat="44.91908" lon="6.80535">
        <ele>1789.15</ele>
        <time>2012-01-12T12:54:53Z</time>
      </trkpt>
      <trkpt lat="44.91922" lon="6.8055">
        <ele>1787.23</ele>
        <time>2012-01-12T12:54:58Z</time>
      </trkpt>
      <trkpt lat="44.91933" lon="6.80562">
        <ele>1783.86</ele>
        <time>2012-01-12T12:55:02Z</time>
      </trkpt>
      <trkpt lat="44.91946" lon="6.80575">
        <ele>1780.02</ele>
        <time>2012-01-12T12:55:06Z</time>
      </trkpt>
      <trkpt lat="44.91968" lon="6.80599">
        <ele>1777.13</ele>
        <time>2012-01-12T12:55:13Z</time>
      </trkpt>
      <trkpt lat="44.9201" lon="6.80617">
        <ele>1775.21</ele>
        <time>2012-01-12T12:55:26Z</time>
      </trkpt>
      <trkpt lat="44.92019" lon="6.80617">
        <ele>1771.85</ele>
        <time>2012-01-12T12:55:31Z</time>
      </trkpt>
      <trkpt lat="44.92026" lon="6.80617">
        <ele>1768.96</ele>
        <time>2012-01-12T12:55:35Z</time>
      </trkpt>
      <trkpt lat="44.92054" lon="6.80616">
        <ele>1768</ele>
        <time>2012-01-12T12:55:47Z</time>
      </trkpt>
      <trkpt lat="44.92056" lon="6.80615">
        <ele>1767.52</ele>
        <time>2012-01-12T12:55:57Z</time>
      </trkpt>
      <trkpt lat="44.92061" lon="6.80614">
        <ele>1767.52</ele>
        <time>2012-01-12T12:56:00Z</time>
      </trkpt>
      <trkpt lat="44.92087" lon="6.80603">
        <ele>1764.16</ele>
        <time>2012-01-12T12:56:10Z</time>
      </trkpt>
      <trkpt lat="44.92095" lon="6.80605">
        <ele>1760.31</ele>
        <time>2012-01-12T12:56:14Z</time>
      </trkpt>
      <trkpt lat="44.92109" lon="6.8061">
        <ele>1758.87</ele>
        <time>2012-01-12T12:56:26Z</time>
      </trkpt>
      <trkpt lat="44.92109" lon="6.8061">
        <ele>1758.87</ele>
        <time>2012-01-12T12:56:28Z</time>
      </trkpt>
      <trkpt lat="44.92105" lon="6.80613">
        <ele>1758.87</ele>
        <time>2012-01-12T12:56:39Z</time>
      </trkpt>
      <trkpt lat="44.92105" lon="6.80615">
        <ele>1758.39</ele>
        <time>2012-01-12T12:56:43Z</time>
      </trkpt>
      <trkpt lat="44.92111" lon="6.80632">
        <ele>1755.02</ele>
        <time>2012-01-12T12:56:50Z</time>
      </trkpt>
      <trkpt lat="44.92109" lon="6.80638">
        <ele>1752.14</ele>
        <time>2012-01-12T12:56:53Z</time>
      </trkpt>
      <trkpt lat="44.92108" lon="6.80636">
        <ele>1748.78</ele>
        <time>2012-01-12T12:56:57Z</time>
      </trkpt>
      <trkpt lat="44.92108" lon="6.80636">
        <ele>1751.66</ele>
        <time>2012-01-12T12:57:04Z</time>
      </trkpt>
      <trkpt lat="44.92107" lon="6.80657">
        <ele>1748.29</ele>
        <time>2012-01-12T12:57:12Z</time>
      </trkpt>
      <trkpt lat="44.92108" lon="6.80662">
        <ele>1744.93</ele>
        <time>2012-01-12T12:57:14Z</time>
      </trkpt>
      <trkpt lat="44.9211" lon="6.80665">
        <ele>1741.57</ele>
        <time>2012-01-12T12:57:17Z</time>
      </trkpt>
      <trkpt lat="44.92113" lon="6.80667">
        <ele>1744.45</ele>
        <time>2012-01-12T12:57:26Z</time>
      </trkpt>
      <trkpt lat="44.92127" lon="6.80688">
        <ele>1743.01</ele>
        <time>2012-01-12T12:57:34Z</time>
      </trkpt>
      <trkpt lat="44.92131" lon="6.8071">
        <ele>1737.72</ele>
        <time>2012-01-12T12:57:37Z</time>
      </trkpt>
      <trkpt lat="44.92131" lon="6.80716">
        <ele>1735.8</ele>
        <time>2012-01-12T12:57:38Z</time>
      </trkpt>
      <trkpt lat="44.92129" lon="6.80732">
        <ele>1733.39</ele>
        <time>2012-01-12T12:57:41Z</time>
      </trkpt>
      <trkpt lat="44.92128" lon="6.80761">
        <ele>1732.91</ele>
        <time>2012-01-12T12:57:51Z</time>
      </trkpt>
      <trkpt lat="44.92129" lon="6.80763">
        <ele>1733.39</ele>
        <time>2012-01-12T12:57:56Z</time>
      </trkpt>
      <trkpt lat="44.92117" lon="6.80747">
        <ele>1733.39</ele>
        <time>2012-01-12T12:58:07Z</time>
      </trkpt>
      <trkpt lat="44.92116" lon="6.80747">
        <ele>1733.39</ele>
        <time>2012-01-12T12:58:08Z</time>
      </trkpt>
      <trkpt lat="44.92102" lon="6.80751">
        <ele>1730.03</ele>
        <time>2012-01-12T12:58:15Z</time>
      </trkpt>
      <trkpt lat="44.92096" lon="6.8075">
        <ele>1727.15</ele>
        <time>2012-01-12T12:58:24Z</time>
      </trkpt>
      <trkpt lat="44.92094" lon="6.80769">
        <ele>1727.15</ele>
        <time>2012-01-12T12:58:30Z</time>
      </trkpt>
      <trkpt lat="44.92111" lon="6.80806">
        <ele>1725.22</ele>
        <time>2012-01-12T12:58:41Z</time>
      </trkpt>
      <trkpt lat="44.92126" lon="6.8083">
        <ele>1721.38</ele>
        <time>2012-01-12T12:58:47Z</time>
      </trkpt>
      <trkpt lat="44.92134" lon="6.80841">
        <ele>1718.01</ele>
        <time>2012-01-12T12:58:50Z</time>
      </trkpt>
      <trkpt lat="44.92145" lon="6.80855">
        <ele>1715.13</ele>
        <time>2012-01-12T12:58:54Z</time>
      </trkpt>
      <trkpt lat="44.92175" lon="6.80893">
        <ele>1714.17</ele>
        <time>2012-01-12T12:59:07Z</time>
      </trkpt>
      <trkpt lat="44.92187" lon="6.80904">
        <ele>1711.28</ele>
        <time>2012-01-12T12:59:12Z</time>
      </trkpt>
      <trkpt lat="44.92189" lon="6.80904">
        <ele>1707.92</ele>
        <time>2012-01-12T12:59:18Z</time>
      </trkpt>
      <trkpt lat="44.92189" lon="6.80904">
        <ele>1708.4</ele>
        <time>2012-01-12T12:59:31Z</time>
      </trkpt>
      <trkpt lat="44.92189" lon="6.80904">
        <ele>1709.84</ele>
        <time>2012-01-12T12:59:49Z</time>
      </trkpt>
      <trkpt lat="44.9219" lon="6.80905">
        <ele>1709.84</ele>
        <time>2012-01-12T13:00:05Z</time>
      </trkpt>
      <trkpt lat="44.9219" lon="6.80905">
        <ele>1709.84</ele>
        <time>2012-01-12T13:00:23Z</time>
      </trkpt>
      <trkpt lat="44.92191" lon="6.80906">
        <ele>1709.84</ele>
        <time>2012-01-12T13:00:36Z</time>
      </trkpt>
      <trkpt lat="44.92205" lon="6.80918">
        <ele>1709.36</ele>
        <time>2012-01-12T13:00:49Z</time>
      </trkpt>
      <trkpt lat="44.92221" lon="6.80932">
        <ele>1707.44</ele>
        <time>2012-01-12T13:01:05Z</time>
      </trkpt>
      <trkpt lat="44.92234" lon="6.80947">
        <ele>1705.52</ele>
        <time>2012-01-12T13:01:19Z</time>
      </trkpt>
      <trkpt lat="44.92238" lon="6.80953">
        <ele>1704.07</ele>
        <time>2012-01-12T13:01:24Z</time>
      </trkpt>
      <trkpt lat="44.92245" lon="6.80963">
        <ele>1703.59</ele>
        <time>2012-01-12T13:01:31Z</time>
      </trkpt>
      <trkpt lat="44.92247" lon="6.80966">
        <ele>1703.11</ele>
        <time>2012-01-12T13:01:33Z</time>
      </trkpt>
      <trkpt lat="44.92257" lon="6.80984">
        <ele>1701.19</ele>
        <time>2012-01-12T13:01:44Z</time>
      </trkpt>
      <trkpt lat="44.92261" lon="6.80993">
        <ele>1700.71</ele>
        <time>2012-01-12T13:01:50Z</time>
      </trkpt>
      <trkpt lat="44.92274" lon="6.81019">
        <ele>1697.83</ele>
        <time>2012-01-12T13:02:07Z</time>
      </trkpt>
      <trkpt lat="44.92284" lon="6.81041">
        <ele>1696.38</ele>
        <time>2012-01-12T13:02:21Z</time>
      </trkpt>
      <trkpt lat="44.92289" lon="6.81048">
        <ele>1694.94</ele>
        <time>2012-01-12T13:02:27Z</time>
      </trkpt>
      <trkpt lat="44.92295" lon="6.81059">
        <ele>1693.98</ele>
        <time>2012-01-12T13:02:34Z</time>
      </trkpt>
      <trkpt lat="44.9231" lon="6.81083">
        <ele>1691.58</ele>
        <time>2012-01-12T13:02:52Z</time>
      </trkpt>
      <trkpt lat="44.92323" lon="6.81096">
        <ele>1689.17</ele>
        <time>2012-01-12T13:03:05Z</time>
      </trkpt>
      <trkpt lat="44.92335" lon="6.81104">
        <ele>1687.73</ele>
        <time>2012-01-12T13:03:16Z</time>
      </trkpt>
      <trkpt lat="44.92347" lon="6.81112">
        <ele>1685.33</ele>
        <time>2012-01-12T13:03:28Z</time>
      </trkpt>
      <trkpt lat="44.92364" lon="6.81126">
        <ele>1683.41</ele>
        <time>2012-01-12T13:03:42Z</time>
      </trkpt>
      <trkpt lat="44.92382" lon="6.81141">
        <ele>1680.52</ele>
        <time>2012-01-12T13:03:58Z</time>
      </trkpt>
      <trkpt lat="44.92402" lon="6.81156">
        <ele>1678.12</ele>
        <time>2012-01-12T13:04:13Z</time>
      </trkpt>
      <trkpt lat="44.92418" lon="6.8117">
        <ele>1675.23</ele>
        <time>2012-01-12T13:04:28Z</time>
      </trkpt>
      <trkpt lat="44.92435" lon="6.81185">
        <ele>1673.31</ele>
        <time>2012-01-12T13:04:43Z</time>
      </trkpt>
      <trkpt lat="44.92448" lon="6.81197">
        <ele>1671.39</ele>
        <time>2012-01-12T13:04:56Z</time>
      </trkpt>
      <trkpt lat="44.92452" lon="6.81199">
        <ele>1670.91</ele>
        <time>2012-01-12T13:05:00Z</time>
      </trkpt>
      <trkpt lat="44.92471" lon="6.81214">
        <ele>1668.02</ele>
        <time>2012-01-12T13:05:16Z</time>
      </trkpt>
      <trkpt lat="44.92491" lon="6.81225">
        <ele>1665.14</ele>
        <time>2012-01-12T13:05:32Z</time>
      </trkpt>
      <trkpt lat="44.92508" lon="6.81236">
        <ele>1662.74</ele>
        <time>2012-01-12T13:05:47Z</time>
      </trkpt>
      <trkpt lat="44.92518" lon="6.81243">
        <ele>1661.78</ele>
        <time>2012-01-12T13:05:57Z</time>
      </trkpt>
      <trkpt lat="44.92534" lon="6.81253">
        <ele>1659.37</ele>
        <time>2012-01-12T13:06:10Z</time>
      </trkpt>
      <trkpt lat="44.92552" lon="6.81267">
        <ele>1656.97</ele>
        <time>2012-01-12T13:06:26Z</time>
      </trkpt>
      <trkpt lat="44.92558" lon="6.81271">
        <ele>1656.01</ele>
        <time>2012-01-12T13:06:31Z</time>
      </trkpt>
      <trkpt lat="44.92574" lon="6.8128">
        <ele>1654.57</ele>
        <time>2012-01-12T13:06:42Z</time>
      </trkpt>
      <trkpt lat="44.92593" lon="6.81294">
        <ele>1651.68</ele>
        <time>2012-01-12T13:06:58Z</time>
      </trkpt>
      <trkpt lat="44.92612" lon="6.8131">
        <ele>1648.8</ele>
        <time>2012-01-12T13:07:15Z</time>
      </trkpt>
      <trkpt lat="44.9263" lon="6.81326">
        <ele>1646.88</ele>
        <time>2012-01-12T13:07:31Z</time>
      </trkpt>
      <trkpt lat="44.92642" lon="6.8133">
        <ele>1645.43</ele>
        <time>2012-01-12T13:07:39Z</time>
      </trkpt>
      <trkpt lat="44.92665" lon="6.81339">
        <ele>1642.55</ele>
        <time>2012-01-12T13:07:56Z</time>
      </trkpt>
      <trkpt lat="44.92682" lon="6.8135">
        <ele>1640.15</ele>
        <time>2012-01-12T13:08:10Z</time>
      </trkpt>
      <trkpt lat="44.92687" lon="6.81353">
        <ele>1639.67</ele>
        <time>2012-01-12T13:08:14Z</time>
      </trkpt>
      <trkpt lat="44.92691" lon="6.81355">
        <ele>1638.7</ele>
        <time>2012-01-12T13:08:17Z</time>
      </trkpt>
      <trkpt lat="44.92695" lon="6.81359">
        <ele>1638.22</ele>
        <time>2012-01-12T13:08:21Z</time>
      </trkpt>
      <trkpt lat="44.92715" lon="6.81368">
        <ele>1635.34</ele>
        <time>2012-01-12T13:08:36Z</time>
      </trkpt>
      <trkpt lat="44.92734" lon="6.81372">
        <ele>1632.94</ele>
        <time>2012-01-12T13:08:50Z</time>
      </trkpt>
      <trkpt lat="44.92751" lon="6.81368">
        <ele>1630.53</ele>
        <time>2012-01-12T13:09:04Z</time>
      </trkpt>
      <trkpt lat="44.92764" lon="6.81362">
        <ele>1628.61</ele>
        <time>2012-01-12T13:09:17Z</time>
      </trkpt>
      <trkpt lat="44.92781" lon="6.81356">
        <ele>1625.73</ele>
        <time>2012-01-12T13:09:30Z</time>
      </trkpt>
      <trkpt lat="44.92798" lon="6.81352">
        <ele>1622.84</ele>
        <time>2012-01-12T13:09:45Z</time>
      </trkpt>
      <trkpt lat="44.92818" lon="6.81349">
        <ele>1621.4</ele>
        <time>2012-01-12T13:09:58Z</time>
      </trkpt>
      <trkpt lat="44.92841" lon="6.8135">
        <ele>1619</ele>
        <time>2012-01-12T13:10:13Z</time>
      </trkpt>
      <trkpt lat="44.92846" lon="6.81351">
        <ele>1618.52</ele>
        <time>2012-01-12T13:10:17Z</time>
      </trkpt>
      <trkpt lat="44.9287" lon="6.81355">
        <ele>1615.63</ele>
        <time>2012-01-12T13:10:33Z</time>
      </trkpt>
      <trkpt lat="44.92895" lon="6.81352">
        <ele>1613.23</ele>
        <time>2012-01-12T13:10:50Z</time>
      </trkpt>
      <trkpt lat="44.92899" lon="6.81351">
        <ele>1612.75</ele>
        <time>2012-01-12T13:10:53Z</time>
      </trkpt>
      <trkpt lat="44.92919" lon="6.81344">
        <ele>1611.31</ele>
        <time>2012-01-12T13:11:08Z</time>
      </trkpt>
      <trkpt lat="44.92924" lon="6.8134">
        <ele>1610.83</ele>
        <time>2012-01-12T13:11:12Z</time>
      </trkpt>
      <trkpt lat="44.9294" lon="6.81322">
        <ele>1608.42</ele>
        <time>2012-01-12T13:11:28Z</time>
      </trkpt>
      <trkpt lat="44.92954" lon="6.81309">
        <ele>1606.02</ele>
        <time>2012-01-12T13:11:41Z</time>
      </trkpt>
      <trkpt lat="44.92967" lon="6.81291">
        <ele>1604.1</ele>
        <time>2012-01-12T13:11:55Z</time>
      </trkpt>
      <trkpt lat="44.92971" lon="6.81286">
        <ele>1602.17</ele>
        <time>2012-01-12T13:12:10Z</time>
      </trkpt>
      <trkpt lat="44.92974" lon="6.8129">
        <ele>1598.81</ele>
        <time>2012-01-12T13:12:21Z</time>
      </trkpt>
      <trkpt lat="44.92974" lon="6.8129">
        <ele>1598.33</ele>
        <time>2012-01-12T13:12:41Z</time>
      </trkpt>
      <trkpt lat="44.92974" lon="6.8129">
        <ele>1598.33</ele>
        <time>2012-01-12T13:12:54Z</time>
      </trkpt>
      <trkpt lat="44.92981" lon="6.81305">
        <ele>1597.85</ele>
        <time>2012-01-12T13:13:03Z</time>
      </trkpt>
      <trkpt lat="44.92982" lon="6.81306">
        <ele>1597.85</ele>
        <time>2012-01-12T13:13:04Z</time>
      </trkpt>
      <trkpt lat="44.92983" lon="6.81309">
        <ele>1595.93</ele>
        <time>2012-01-12T13:13:17Z</time>
      </trkpt>
      <trkpt lat="44.92983" lon="6.81309">
        <ele>1595.93</ele>
        <time>2012-01-12T13:13:22Z</time>
      </trkpt>
      <trkpt lat="44.92994" lon="6.81318">
        <ele>1592.08</ele>
        <time>2012-01-12T13:13:29Z</time>
      </trkpt>
      <trkpt lat="44.92995" lon="6.81321">
        <ele>1588.72</ele>
        <time>2012-01-12T13:13:32Z</time>
      </trkpt>
      <trkpt lat="44.92995" lon="6.81321">
        <ele>1588.72</ele>
        <time>2012-01-12T13:13:33Z</time>
      </trkpt>
      <trkpt lat="44.92996" lon="6.81321">
        <ele>1588.24</ele>
        <time>2012-01-12T13:13:39Z</time>
      </trkpt>
      <trkpt lat="44.93005" lon="6.81332">
        <ele>1588.24</ele>
        <time>2012-01-12T13:13:46Z</time>
      </trkpt>
      <trkpt lat="44.93003" lon="6.81339">
        <ele>1584.39</ele>
        <time>2012-01-12T13:13:50Z</time>
      </trkpt>
      <trkpt lat="44.93002" lon="6.81351">
        <ele>1582.95</ele>
        <time>2012-01-12T13:14:03Z</time>
      </trkpt>
      <trkpt lat="44.92997" lon="6.8136">
        <ele>1582.47</ele>
        <time>2012-01-12T13:14:07Z</time>
      </trkpt>
      <trkpt lat="44.93002" lon="6.81371">
        <ele>1582.47</ele>
        <time>2012-01-12T13:14:12Z</time>
      </trkpt>
      <trkpt lat="44.93002" lon="6.81381">
        <ele>1577.18</ele>
        <time>2012-01-12T13:14:16Z</time>
      </trkpt>
      <trkpt lat="44.92999" lon="6.81385">
        <ele>1573.82</ele>
        <time>2012-01-12T13:14:20Z</time>
      </trkpt>
      <trkpt lat="44.92998" lon="6.81389">
        <ele>1577.18</ele>
        <time>2012-01-12T13:14:30Z</time>
      </trkpt>
      <trkpt lat="44.92995" lon="6.81393">
        <ele>1575.74</ele>
        <time>2012-01-12T13:14:44Z</time>
      </trkpt>
      <trkpt lat="44.92986" lon="6.81407">
        <ele>1574.78</ele>
        <time>2012-01-12T13:14:56Z</time>
      </trkpt>
      <trkpt lat="44.92984" lon="6.8141">
        <ele>1574.78</ele>
        <time>2012-01-12T13:14:57Z</time>
      </trkpt>
      <trkpt lat="44.92981" lon="6.81438">
        <ele>1570.93</ele>
        <time>2012-01-12T13:15:02Z</time>
      </trkpt>
      <trkpt lat="44.92975" lon="6.81451">
        <ele>1567.57</ele>
        <time>2012-01-12T13:15:04Z</time>
      </trkpt>
      <trkpt lat="44.92969" lon="6.8146">
        <ele>1564.2</ele>
        <time>2012-01-12T13:15:06Z</time>
      </trkpt>
      <trkpt lat="44.92967" lon="6.81469">
        <ele>1561.32</ele>
        <time>2012-01-12T13:15:09Z</time>
      </trkpt>
      <trkpt lat="44.92967" lon="6.81469">
        <ele>1564.2</ele>
        <time>2012-01-12T13:15:16Z</time>
      </trkpt>
      <trkpt lat="44.92967" lon="6.81469">
        <ele>1567.09</ele>
        <time>2012-01-12T13:15:26Z</time>
      </trkpt>
      <trkpt lat="44.92973" lon="6.81469">
        <ele>1565.64</ele>
        <time>2012-01-12T13:15:29Z</time>
      </trkpt>
      <trkpt lat="44.92983" lon="6.81475">
        <ele>1562.28</ele>
        <time>2012-01-12T13:15:33Z</time>
      </trkpt>
      <trkpt lat="44.92982" lon="6.81487">
        <ele>1558.92</ele>
        <time>2012-01-12T13:15:36Z</time>
      </trkpt>
      <trkpt lat="44.92981" lon="6.81488">
        <ele>1556.51</ele>
        <time>2012-01-12T13:15:39Z</time>
      </trkpt>
      <trkpt lat="44.92981" lon="6.81492">
        <ele>1557.95</ele>
        <time>2012-01-12T13:15:46Z</time>
      </trkpt>
      <trkpt lat="44.92982" lon="6.81498">
        <ele>1559.4</ele>
        <time>2012-01-12T13:15:49Z</time>
      </trkpt>
      <trkpt lat="44.92984" lon="6.81507">
        <ele>1556.03</ele>
        <time>2012-01-12T13:15:56Z</time>
      </trkpt>
      <trkpt lat="44.92975" lon="6.81517">
        <ele>1553.15</ele>
        <time>2012-01-12T13:16:11Z</time>
      </trkpt>
      <trkpt lat="44.92972" lon="6.81527">
        <ele>1554.59</ele>
        <time>2012-01-12T13:16:23Z</time>
      </trkpt>
      <trkpt lat="44.92972" lon="6.81527">
        <ele>1554.59</ele>
        <time>2012-01-12T13:16:37Z</time>
      </trkpt>
      <trkpt lat="44.92972" lon="6.81526">
        <ele>1553.15</ele>
        <time>2012-01-12T13:16:45Z</time>
      </trkpt>
      <trkpt lat="44.92972" lon="6.81527">
        <ele>1553.15</ele>
        <time>2012-01-12T13:17:00Z</time>
      </trkpt>
      <trkpt lat="44.92974" lon="6.81527">
        <ele>1553.15</ele>
        <time>2012-01-12T13:17:08Z</time>
      </trkpt>
      <trkpt lat="44.92983" lon="6.81539">
        <ele>1549.78</ele>
        <time>2012-01-12T13:17:17Z</time>
      </trkpt>
      <trkpt lat="44.92983" lon="6.8154">
        <ele>1546.9</ele>
        <time>2012-01-12T13:17:22Z</time>
      </trkpt>
      <trkpt lat="44.92986" lon="6.81561">
        <ele>1546.42</ele>
        <time>2012-01-12T13:17:29Z</time>
      </trkpt>
      <trkpt lat="44.92983" lon="6.81577">
        <ele>1544.5</ele>
        <time>2012-01-12T13:17:41Z</time>
      </trkpt>
      <trkpt lat="44.92982" lon="6.81583">
        <ele>1544.01</ele>
        <time>2012-01-12T13:17:47Z</time>
      </trkpt>
      <trkpt lat="44.92998" lon="6.81586">
        <ele>1540.65</ele>
        <time>2012-01-12T13:17:53Z</time>
      </trkpt>
      <trkpt lat="44.93004" lon="6.81583">
        <ele>1538.73</ele>
        <time>2012-01-12T13:17:55Z</time>
      </trkpt>
      <trkpt lat="44.93011" lon="6.81603">
        <ele>1534.88</ele>
        <time>2012-01-12T13:18:01Z</time>
      </trkpt>
      <trkpt lat="44.92996" lon="6.81632">
        <ele>1534.4</ele>
        <time>2012-01-12T13:18:13Z</time>
      </trkpt>
      <trkpt lat="44.92991" lon="6.81646">
        <ele>1534.4</ele>
        <time>2012-01-12T13:18:27Z</time>
      </trkpt>
      <trkpt lat="44.92982" lon="6.81664">
        <ele>1533.92</ele>
        <time>2012-01-12T13:18:34Z</time>
      </trkpt>
      <trkpt lat="44.92987" lon="6.81668">
        <ele>1532.48</ele>
        <time>2012-01-12T13:18:38Z</time>
      </trkpt>
      <trkpt lat="44.93012" lon="6.81662">
        <ele>1529.11</ele>
        <time>2012-01-12T13:18:49Z</time>
      </trkpt>
      <trkpt lat="44.93028" lon="6.81656">
        <ele>1525.27</ele>
        <time>2012-01-12T13:18:53Z</time>
      </trkpt>
      <trkpt lat="44.93052" lon="6.81641">
        <ele>1522.87</ele>
        <time>2012-01-12T13:19:04Z</time>
      </trkpt>
      <trkpt lat="44.93052" lon="6.81641">
        <ele>1524.31</ele>
        <time>2012-01-12T13:19:13Z</time>
      </trkpt>
      <trkpt lat="44.9305" lon="6.81665">
        <ele>1523.83</ele>
        <time>2012-01-12T13:19:20Z</time>
      </trkpt>
      <trkpt lat="44.93047" lon="6.81672">
        <ele>1521.42</ele>
        <time>2012-01-12T13:19:22Z</time>
      </trkpt>
      <trkpt lat="44.9305" lon="6.81689">
        <ele>1517.1</ele>
        <time>2012-01-12T13:19:31Z</time>
      </trkpt>
      <trkpt lat="44.93051" lon="6.81693">
        <ele>1517.58</ele>
        <time>2012-01-12T13:19:38Z</time>
      </trkpt>
      <trkpt lat="44.93046" lon="6.81699">
        <ele>1517.58</ele>
        <time>2012-01-12T13:19:49Z</time>
      </trkpt>
      <trkpt lat="44.93046" lon="6.81699">
        <ele>1517.1</ele>
        <time>2012-01-12T13:20:01Z</time>
      </trkpt>
      <trkpt lat="44.93048" lon="6.81707">
        <ele>1517.1</ele>
        <time>2012-01-12T13:20:05Z</time>
      </trkpt>
      <trkpt lat="44.93055" lon="6.81709">
        <ele>1515.66</ele>
        <time>2012-01-12T13:20:11Z</time>
      </trkpt>
      <trkpt lat="44.9306" lon="6.81707">
        <ele>1515.18</ele>
        <time>2012-01-12T13:20:14Z</time>
      </trkpt>
      <trkpt lat="44.93065" lon="6.81712">
        <ele>1514.21</ele>
        <time>2012-01-12T13:20:21Z</time>
      </trkpt>
      <trkpt lat="44.93069" lon="6.81721">
        <ele>1512.77</ele>
        <time>2012-01-12T13:20:26Z</time>
      </trkpt>
      <trkpt lat="44.9308" lon="6.81717">
        <ele>1509.41</ele>
        <time>2012-01-12T13:20:34Z</time>
      </trkpt>
      <trkpt lat="44.93082" lon="6.81725">
        <ele>1505.56</ele>
        <time>2012-01-12T13:20:40Z</time>
      </trkpt>
      <trkpt lat="44.9308" lon="6.81736">
        <ele>1505.08</ele>
        <time>2012-01-12T13:20:47Z</time>
      </trkpt>
      <trkpt lat="44.93086" lon="6.81739">
        <ele>1505.08</ele>
        <time>2012-01-12T13:20:54Z</time>
      </trkpt>
      <trkpt lat="44.93085" lon="6.81747">
        <ele>1503.64</ele>
        <time>2012-01-12T13:20:59Z</time>
      </trkpt>
      <trkpt lat="44.93088" lon="6.81752">
        <ele>1500.76</ele>
        <time>2012-01-12T13:21:04Z</time>
      </trkpt>
      <trkpt lat="44.9309" lon="6.81753">
        <ele>1498.35</ele>
        <time>2012-01-12T13:21:07Z</time>
      </trkpt>
      <trkpt lat="44.93091" lon="6.81759">
        <ele>1495.95</ele>
        <time>2012-01-12T13:21:17Z</time>
      </trkpt>
      <trkpt lat="44.93091" lon="6.81759">
        <ele>1495.95</ele>
        <time>2012-01-12T13:21:19Z</time>
      </trkpt>
      <trkpt lat="44.93097" lon="6.81761">
        <ele>1495.95</ele>
        <time>2012-01-12T13:21:31Z</time>
      </trkpt>
      <trkpt lat="44.93097" lon="6.81761">
        <ele>1494.99</ele>
        <time>2012-01-12T13:21:45Z</time>
      </trkpt>
      <trkpt lat="44.93097" lon="6.81761">
        <ele>1494.99</ele>
        <time>2012-01-12T13:22:06Z</time>
      </trkpt>
      <trkpt lat="44.93097" lon="6.81762">
        <ele>1494.99</ele>
        <time>2012-01-12T13:22:20Z</time>
      </trkpt>
      <trkpt lat="44.93104" lon="6.81765">
        <ele>1493.55</ele>
        <time>2012-01-12T13:22:33Z</time>
      </trkpt>
      <trkpt lat="44.93103" lon="6.81771">
        <ele>1491.62</ele>
        <time>2012-01-12T13:22:48Z</time>
      </trkpt>
      <trkpt lat="44.93098" lon="6.81781">
        <ele>1489.7</ele>
        <time>2012-01-12T13:23:03Z</time>
      </trkpt>
      <trkpt lat="44.93095" lon="6.81794">
        <ele>1487.78</ele>
        <time>2012-01-12T13:23:16Z</time>
      </trkpt>
      <trkpt lat="44.93092" lon="6.81803">
        <ele>1484.89</ele>
        <time>2012-01-12T13:23:30Z</time>
      </trkpt>
      <trkpt lat="44.93089" lon="6.81817">
        <ele>1482.49</ele>
        <time>2012-01-12T13:23:46Z</time>
      </trkpt>
      <trkpt lat="44.93084" lon="6.81831">
        <ele>1481.05</ele>
        <time>2012-01-12T13:24:01Z</time>
      </trkpt>
      <trkpt lat="44.93082" lon="6.8184">
        <ele>1479.61</ele>
        <time>2012-01-12T13:24:08Z</time>
      </trkpt>
      <trkpt lat="44.93068" lon="6.81861">
        <ele>1476.72</ele>
        <time>2012-01-12T13:24:25Z</time>
      </trkpt>
      <trkpt lat="44.9306" lon="6.81876">
        <ele>1475.28</ele>
        <time>2012-01-12T13:24:35Z</time>
      </trkpt>
      <trkpt lat="44.93042" lon="6.81906">
        <ele>1472.88</ele>
        <time>2012-01-12T13:24:54Z</time>
      </trkpt>
      <trkpt lat="44.93034" lon="6.81913">
        <ele>1471.44</ele>
        <time>2012-01-12T13:25:01Z</time>
      </trkpt>
      <trkpt lat="44.93022" lon="6.8193">
        <ele>1469.03</ele>
        <time>2012-01-12T13:25:15Z</time>
      </trkpt>
      <trkpt lat="44.9302" lon="6.81951">
        <ele>1467.59</ele>
        <time>2012-01-12T13:25:26Z</time>
      </trkpt>
      <trkpt lat="44.93033" lon="6.81973">
        <ele>1465.19</ele>
        <time>2012-01-12T13:25:42Z</time>
      </trkpt>
      <trkpt lat="44.93039" lon="6.81978">
        <ele>1463.74</ele>
        <time>2012-01-12T13:25:47Z</time>
      </trkpt>
      <trkpt lat="44.93057" lon="6.81989">
        <ele>1461.82</ele>
        <time>2012-01-12T13:26:03Z</time>
      </trkpt>
      <trkpt lat="44.93076" lon="6.81999">
        <ele>1459.9</ele>
        <time>2012-01-12T13:26:19Z</time>
      </trkpt>
      <trkpt lat="44.93089" lon="6.82002">
        <ele>1457.98</ele>
        <time>2012-01-12T13:26:31Z</time>
      </trkpt>
      <trkpt lat="44.93115" lon="6.82012">
        <ele>1455.09</ele>
        <time>2012-01-12T13:26:48Z</time>
      </trkpt>
      <trkpt lat="44.93129" lon="6.82018">
        <ele>1453.17</ele>
        <time>2012-01-12T13:27:01Z</time>
      </trkpt>
      <trkpt lat="44.9315" lon="6.82024">
        <ele>1450.77</ele>
        <time>2012-01-12T13:27:19Z</time>
      </trkpt>
      <trkpt lat="44.93167" lon="6.82031">
        <ele>1448.84</ele>
        <time>2012-01-12T13:27:34Z</time>
      </trkpt>
      <trkpt lat="44.93182" lon="6.82036">
        <ele>1447.88</ele>
        <time>2012-01-12T13:27:48Z</time>
      </trkpt>
      <trkpt lat="44.93182" lon="6.82039">
        <ele>1447.4</ele>
        <time>2012-01-12T13:28:04Z</time>
      </trkpt>
      <trkpt lat="44.93182" lon="6.8204">
        <ele>1447.4</ele>
        <time>2012-01-12T13:28:12Z</time>
      </trkpt>
      <trkpt lat="44.93179" lon="6.82041">
        <ele>1447.4</ele>
        <time>2012-01-12T13:28:20Z</time>
      </trkpt>
      <trkpt lat="44.93179" lon="6.82041">
        <ele>1446.92</ele>
        <time>2012-01-12T13:28:32Z</time>
      </trkpt>
      <trkpt lat="44.9318" lon="6.82039">
        <ele>1446.92</ele>
        <time>2012-01-12T13:28:40Z</time>
      </trkpt>
      <trkpt lat="44.9318" lon="6.82039">
        <ele>1446.92</ele>
        <time>2012-01-12T13:29:05Z</time>
      </trkpt>
      <trkpt lat="44.9318" lon="6.82039">
        <ele>1446.92</ele>
        <time>2012-01-12T13:29:47Z</time>
      </trkpt>
      <trkpt lat="44.9318" lon="6.82039">
        <ele>1446.92</ele>
        <time>2012-01-12T13:30:33Z</time>
      </trkpt>
      <trkpt lat="44.9318" lon="6.82039">
        <ele>1446.92</ele>
        <time>2012-01-12T13:31:09Z</time>
      </trkpt>
      <trkpt lat="44.9318" lon="6.82038">
        <ele>1446.92</ele>
        <time>2012-01-12T13:31:45Z</time>
      </trkpt>
      <trkpt lat="44.9318" lon="6.82037">
        <ele>1446.92</ele>
        <time>2012-01-12T13:32:28Z</time>
      </trkpt>
      <trkpt lat="44.9318" lon="6.82037">
        <ele>1446.92</ele>
        <time>2012-01-12T13:33:11Z</time>
      </trkpt>
      <trkpt lat="44.9318" lon="6.82037">
        <ele>1446.92</ele>
        <time>2012-01-12T13:33:48Z</time>
      </trkpt>
      <trkpt lat="44.9318" lon="6.82037">
        <ele>1446.92</ele>
        <time>2012-01-12T13:34:29Z</time>
      </trkpt>
      <trkpt lat="44.93179" lon="6.82038">
        <ele>1446.92</ele>
        <time>2012-01-12T13:35:05Z</time>
      </trkpt>
      <trkpt lat="44.93179" lon="6.82038">
        <ele>1446.92</ele>
        <time>2012-01-12T13:35:23Z</time>
      </trkpt>
      <trkpt lat="44.93179" lon="6.82038">
        <ele>1446.92</ele>
        <time>2012-01-12T13:35:42Z</time>
      </trkpt>
    </trkseg>
  </trk>
</gpx>